SWR138 LSZH-VHHH
Flight info
| Callsign | SWR138 |
|---|---|
| Flight time | 11h 14m |
| Altitude | 29000 |
| Route | DEGES Z2 UMVEG/N0488F330 DCT DIMLO DCT INVED DCT SOKRU DCT DINRO DCT UDROS DCT ABSAX DCT KARDE DCT REBLO M11 EDATA/N0487F350 M11 RODAR A909 ABDAN A846 RANAH L750 MERUN G452 LKN A201 PPT/N0496F370 A201 LSO A599 LINSO/K0915S1130 A599 POU R473 SIERA |
| Aircraft | B77W/H-SDE2E3FGHIJ1J4J5M1P2RWXYZ/LB1D1G1 |
Departure
| Time | 2026-05-04 21:03 |
|---|---|
| Airport | Zürich Airport (LSZH) |
Arrival
| Time | 2026-05-05 08:17 |
|---|---|
| Airport | Hong Kong International Airport (VHHH) |
| Time | Latitude | Longitude | Altitude | Speed | Heading |
|---|---|---|---|---|---|
| 2026-05-04 19:40 | 47.46030 | 8.55735 | 1407 ft | 0 kts | 6° |
| 2026-05-04 20:49 | 47.46011 | 8.55732 | 1414 ft | 4 kts | 6° |
| 2026-05-04 20:49 | 47.45984 | 8.55728 | 1410 ft | 4 kts | 6° |
| 2026-05-04 20:50 | 47.45961 | 8.55723 | 1411 ft | 4 kts | 24° |
| 2026-05-04 20:50 | 47.45944 | 8.55701 | 1417 ft | 4 kts | 81° |
| 2026-05-04 20:50 | 47.45947 | 8.55664 | 1410 ft | 4 kts | 111° |
| 2026-05-04 20:50 | 47.45956 | 8.55627 | 1416 ft | 4 kts | 101° |
| 2026-05-04 20:51 | 47.45957 | 8.55619 | 1411 ft | 1 kts | 96° |
| 2026-05-04 20:54 | 47.45957 | 8.55620 | 1406 ft | 2 kts | 96° |
| 2026-05-04 20:55 | 47.45952 | 8.55680 | 1407 ft | 9 kts | 96° |
| 2026-05-04 20:55 | 47.45945 | 8.55780 | 1409 ft | 10 kts | 96° |
| 2026-05-04 20:55 | 47.45938 | 8.55880 | 1413 ft | 10 kts | 96° |
| 2026-05-04 20:55 | 47.45931 | 8.55980 | 1417 ft | 10 kts | 96° |
| 2026-05-04 20:56 | 47.45924 | 8.56080 | 1414 ft | 10 kts | 96° |
| 2026-05-04 20:56 | 47.45917 | 8.56179 | 1417 ft | 10 kts | 96° |
| 2026-05-04 20:56 | 47.45914 | 8.56276 | 1417 ft | 9 kts | 75° |
| 2026-05-04 20:56 | 47.45965 | 8.56318 | 1422 ft | 9 kts | 7° |
| 2026-05-04 20:57 | 47.45993 | 8.56321 | 1421 ft | 0 kts | 5° |
| 2026-05-04 20:58 | 47.45995 | 8.56322 | 1421 ft | 2 kts | 5° |
| 2026-05-04 20:58 | 47.46050 | 8.56329 | 1417 ft | 10 kts | 5° |
| 2026-05-04 20:59 | 47.46107 | 8.56387 | 1420 ft | 11 kts | 49° |
| 2026-05-04 20:59 | 47.46163 | 8.56402 | 1417 ft | 8 kts | 324° |
| 2026-05-04 20:59 | 47.46171 | 8.56390 | 1420 ft | 0 kts | 315° |
| 2026-05-04 21:02 | 47.46176 | 8.56382 | 1414 ft | 11 kts | 316° |
| 2026-05-04 21:02 | 47.46426 | 8.56041 | 1413 ft | 87 kts | 316° |
| 2026-05-04 21:03 | 47.47051 | 8.55189 | 1395 ft | 155 kts | 317° |
| 2026-05-04 21:03 | 47.47637 | 8.54385 | 1411 ft | 191 kts | 317° |
| 2026-05-04 21:03 | 47.49007 | 8.52540 | 1935 ft | 206 kts | 317° |
| 2026-05-04 21:03 | 47.50144 | 8.51286 | 2634 ft | 200 kts | 329° |
| 2026-05-04 21:04 | 47.51385 | 8.50343 | 3224 ft | 202 kts | 331° |
| 2026-05-04 21:04 | 47.51802 | 8.50003 | 3328 ft | 205 kts | 327° |
| 2026-05-04 21:04 | 47.53639 | 8.45393 | 4268 ft | 213 kts | 267° |
| 2026-05-04 21:05 | 47.53323 | 8.43243 | 4643 ft | 218 kts | 247° |
| 2026-05-04 21:05 | 47.52642 | 8.41215 | 5060 ft | 222 kts | 243° |
| 2026-05-04 21:05 | 47.51963 | 8.39164 | 5586 ft | 221 kts | 243° |
| 2026-05-04 21:05 | 47.51194 | 8.37219 | 5962 ft | 223 kts | 221° |
| 2026-05-04 21:06 | 47.49789 | 8.36340 | 6235 ft | 223 kts | 179° |
| 2026-05-04 21:06 | 47.48321 | 8.36993 | 6638 ft | 224 kts | 143° |
| 2026-05-04 21:06 | 47.47394 | 8.38804 | 7091 ft | 222 kts | 118° |
| 2026-05-04 21:06 | 47.46640 | 8.40809 | 7475 ft | 225 kts | 125° |
| 2026-05-04 21:07 | 47.45753 | 8.42737 | 7858 ft | 229 kts | 125° |
| 2026-05-04 21:07 | 47.45183 | 8.44986 | 8057 ft | 248 kts | 93° |
| 2026-05-04 21:07 | 47.45384 | 8.47599 | 8152 ft | 264 kts | 84° |
| 2026-05-04 21:07 | 47.45573 | 8.50380 | 8399 ft | 279 kts | 89° |
| 2026-05-04 21:08 | 47.45649 | 8.53290 | 8824 ft | 288 kts | 91° |
| 2026-05-04 21:08 | 47.45728 | 8.56280 | 9358 ft | 294 kts | 88° |
| 2026-05-04 21:08 | 47.45860 | 8.59315 | 9969 ft | 298 kts | 88° |
| 2026-05-04 21:08 | 47.45987 | 8.62399 | 10424 ft | 307 kts | 89° |
| 2026-05-04 21:09 | 47.46109 | 8.65668 | 10569 ft | 329 kts | 89° |
| 2026-05-04 21:09 | 47.46237 | 8.69146 | 10742 ft | 350 kts | 89° |
| 2026-05-04 21:09 | 47.46376 | 8.72846 | 10922 ft | 371 kts | 88° |
| 2026-05-04 21:09 | 47.46519 | 8.76721 | 11339 ft | 383 kts | 89° |
| 2026-05-04 21:10 | 47.46664 | 8.80698 | 11923 ft | 391 kts | 89° |
| 2026-05-04 21:10 | 47.46575 | 8.84649 | 12458 ft | 393 kts | 101° |
| 2026-05-04 21:10 | 47.46005 | 8.88625 | 13111 ft | 397 kts | 106° |
| 2026-05-04 21:10 | 47.45331 | 8.92596 | 13876 ft | 400 kts | 107° |
| 2026-05-04 21:11 | 47.44672 | 8.96606 | 14581 ft | 404 kts | 105° |
| 2026-05-04 21:11 | 47.44060 | 9.00679 | 15247 ft | 408 kts | 104° |
| 2026-05-04 21:11 | 47.43472 | 9.04808 | 15879 ft | 414 kts | 104° |
| 2026-05-04 21:11 | 47.42889 | 9.08989 | 16522 ft | 418 kts | 104° |
| 2026-05-04 21:12 | 47.42294 | 9.13215 | 17199 ft | 422 kts | 104° |
| 2026-05-04 21:12 | 47.41690 | 9.17480 | 17857 ft | 425 kts | 103° |
| 2026-05-04 21:12 | 47.41432 | 9.21859 | 18270 ft | 436 kts | 86° |
| 2026-05-04 21:12 | 47.41784 | 9.24787 | 18567 ft | 438 kts | 77° |
| 2026-05-04 21:13 | 47.42538 | 9.29172 | 19057 ft | 444 kts | 77° |
| 2026-05-04 21:13 | 47.43284 | 9.33610 | 19676 ft | 446 kts | 78° |
| 2026-05-04 21:13 | 47.43999 | 9.38081 | 20298 ft | 448 kts | 79° |
| 2026-05-04 21:13 | 47.44690 | 9.42587 | 20884 ft | 452 kts | 79° |
| 2026-05-04 21:14 | 47.45372 | 9.47138 | 21421 ft | 456 kts | 79° |
| 2026-05-04 21:14 | 47.46055 | 9.51726 | 21962 ft | 459 kts | 79° |
| 2026-05-04 21:14 | 47.46702 | 9.56362 | 22496 ft | 462 kts | 83° |
| 2026-05-04 21:14 | 47.47042 | 9.61083 | 23037 ft | 463 kts | 90° |
| 2026-05-04 21:15 | 47.47064 | 9.65847 | 23580 ft | 463 kts | 96° |
| 2026-05-04 21:15 | 47.46804 | 9.70580 | 24087 ft | 463 kts | 98° |
| 2026-05-04 21:15 | 47.46510 | 9.75329 | 24554 ft | 465 kts | 98° |
| 2026-05-04 21:15 | 47.46215 | 9.80113 | 24993 ft | 469 kts | 98° |
| 2026-05-04 21:16 | 47.45927 | 9.84927 | 25422 ft | 472 kts | 98° |
| 2026-05-04 21:16 | 47.45646 | 9.89766 | 25846 ft | 475 kts | 97° |
| 2026-05-04 21:16 | 47.45368 | 9.94634 | 26285 ft | 477 kts | 97° |
| 2026-05-04 21:16 | 47.45089 | 9.99530 | 26718 ft | 479 kts | 97° |
| 2026-05-04 21:17 | 47.44815 | 10.04338 | 27120 ft | 482 kts | 97° |
| 2026-05-04 21:17 | 47.44530 | 10.09283 | 27541 ft | 484 kts | 97° |
| 2026-05-04 21:17 | 47.44240 | 10.14243 | 27917 ft | 486 kts | 98° |
| 2026-05-04 21:17 | 47.43903 | 10.19227 | 28270 ft | 488 kts | 101° |
| 2026-05-04 21:18 | 47.43293 | 10.24156 | 28595 ft | 488 kts | 105° |
| 2026-05-04 21:18 | 47.42595 | 10.29069 | 28949 ft | 490 kts | 105° |
| 2026-05-04 21:18 | 47.41901 | 10.34001 | 29283 ft | 492 kts | 104° |
| 2026-05-04 21:18 | 47.41219 | 10.38967 | 29593 ft | 495 kts | 104° |
| 2026-05-04 21:19 | 47.40545 | 10.43953 | 29896 ft | 496 kts | 104° |
| 2026-05-04 21:19 | 47.39874 | 10.48918 | 30453 ft | 489 kts | 103° |
| 2026-05-04 21:19 | 47.39207 | 10.53819 | 30913 ft | 486 kts | 104° |
| 2026-05-04 21:19 | 47.38529 | 10.58719 | 31090 ft | 490 kts | 104° |
| 2026-05-04 21:20 | 47.37841 | 10.63659 | 31274 ft | 493 kts | 104° |
| 2026-05-04 21:20 | 47.37151 | 10.68607 | 31580 ft | 493 kts | 104° |
| 2026-05-04 21:20 | 47.36460 | 10.73555 | 31891 ft | 492 kts | 104° |
| 2026-05-04 21:20 | 47.35770 | 10.78488 | 32211 ft | 492 kts | 104° |
| 2026-05-04 21:21 | 47.35077 | 10.83432 | 32457 ft | 492 kts | 104° |
| 2026-05-04 21:21 | 47.34381 | 10.88379 | 32723 ft | 492 kts | 104° |
| 2026-05-04 21:21 | 47.33684 | 10.93314 | 32973 ft | 493 kts | 104° |
| 2026-05-04 21:21 | 47.32989 | 10.98218 | 32998 ft | 497 kts | 104° |
| 2026-05-04 21:22 | 47.31585 | 11.08082 | 33008 ft | 495 kts | 104° |
| 2026-05-04 21:22 | 47.30172 | 11.17948 | 32992 ft | 491 kts | 104° |
| 2026-05-04 21:23 | 47.28755 | 11.27776 | 32959 ft | 491 kts | 104° |
| 2026-05-04 21:23 | 47.27329 | 11.37595 | 32974 ft | 490 kts | 104° |
| 2026-05-04 21:24 | 47.25898 | 11.47407 | 32961 ft | 490 kts | 104° |
| 2026-05-04 21:24 | 47.24650 | 11.57285 | 32968 ft | 492 kts | 101° |
| 2026-05-04 21:25 | 47.23618 | 11.67238 | 32963 ft | 492 kts | 101° |
| 2026-05-04 21:25 | 47.22565 | 11.77202 | 32986 ft | 494 kts | 101° |
| 2026-05-04 21:26 | 47.21476 | 11.87190 | 32998 ft | 495 kts | 101° |
| 2026-05-04 21:26 | 47.20427 | 11.97213 | 32994 ft | 496 kts | 100° |
| 2026-05-04 21:27 | 47.19475 | 12.07154 | 33002 ft | 496 kts | 100° |
| 2026-05-04 21:27 | 47.18511 | 12.17193 | 32998 ft | 496 kts | 100° |
| 2026-05-04 21:28 | 47.17528 | 12.27212 | 32997 ft | 495 kts | 100° |
| 2026-05-04 21:28 | 47.16534 | 12.37151 | 33003 ft | 494 kts | 101° |
| 2026-05-04 21:29 | 47.15525 | 12.47138 | 32982 ft | 493 kts | 101° |
| 2026-05-04 21:29 | 47.14511 | 12.57090 | 33001 ft | 493 kts | 101° |
| 2026-05-04 21:30 | 47.13491 | 12.67029 | 33010 ft | 492 kts | 101° |
| 2026-05-04 21:30 | 47.12462 | 12.76962 | 33021 ft | 492 kts | 101° |
| 2026-05-04 21:31 | 47.10901 | 12.91853 | 33012 ft | 492 kts | 101° |
| 2026-05-04 21:32 | 47.09863 | 13.01652 | 33026 ft | 492 kts | 101° |
| 2026-05-04 21:32 | 47.08803 | 13.11578 | 33038 ft | 492 kts | 101° |
| 2026-05-04 21:33 | 47.07734 | 13.21511 | 33035 ft | 493 kts | 101° |
| 2026-05-04 21:33 | 47.06655 | 13.31447 | 33028 ft | 493 kts | 101° |
| 2026-05-04 21:34 | 47.05566 | 13.41386 | 33051 ft | 494 kts | 101° |
| 2026-05-04 21:34 | 47.04468 | 13.51332 | 33046 ft | 494 kts | 101° |
| 2026-05-04 21:35 | 47.03360 | 13.61279 | 33055 ft | 495 kts | 101° |
| 2026-05-04 21:35 | 47.02244 | 13.71230 | 33033 ft | 495 kts | 101° |
| 2026-05-04 21:36 | 47.01118 | 13.81185 | 33057 ft | 495 kts | 101° |
| 2026-05-04 21:36 | 46.99981 | 13.91152 | 33044 ft | 496 kts | 101° |
| 2026-05-04 21:37 | 46.98851 | 14.00980 | 33045 ft | 497 kts | 101° |
| 2026-05-04 21:37 | 46.97693 | 14.10963 | 33041 ft | 497 kts | 101° |
| 2026-05-04 21:38 | 46.96537 | 14.20867 | 33042 ft | 497 kts | 101° |
| 2026-05-04 21:38 | 46.95364 | 14.30833 | 33046 ft | 497 kts | 102° |
| 2026-05-04 21:39 | 46.94183 | 14.40792 | 33051 ft | 497 kts | 102° |
| 2026-05-04 21:39 | 46.92992 | 14.50750 | 33033 ft | 497 kts | 101° |
| 2026-05-04 21:40 | 46.91793 | 14.60696 | 33046 ft | 496 kts | 101° |
| 2026-05-04 21:40 | 46.90587 | 14.70632 | 33026 ft | 496 kts | 101° |
| 2026-05-04 21:41 | 46.89374 | 14.80554 | 33032 ft | 496 kts | 101° |
| 2026-05-04 21:41 | 46.88152 | 14.90471 | 33025 ft | 496 kts | 101° |
| 2026-05-04 21:42 | 46.86937 | 15.00257 | 33026 ft | 498 kts | 102° |
| 2026-05-04 21:42 | 46.85693 | 15.10202 | 33014 ft | 499 kts | 102° |
| 2026-05-04 21:43 | 46.84443 | 15.20125 | 32999 ft | 500 kts | 102° |
| 2026-05-04 21:43 | 46.83176 | 15.30098 | 33014 ft | 499 kts | 101° |
| 2026-05-04 21:44 | 46.81908 | 15.40020 | 32989 ft | 495 kts | 101° |
| 2026-05-04 21:44 | 46.80642 | 15.49859 | 32987 ft | 491 kts | 102° |
| 2026-05-04 21:45 | 46.79375 | 15.59632 | 32988 ft | 489 kts | 102° |
| 2026-05-04 21:45 | 46.78103 | 15.69366 | 32991 ft | 488 kts | 102° |
| 2026-05-04 21:46 | 46.76823 | 15.79098 | 33012 ft | 489 kts | 102° |
| 2026-05-04 21:46 | 46.75530 | 15.88865 | 33012 ft | 492 kts | 102° |
| 2026-05-04 21:47 | 46.74223 | 15.98671 | 33002 ft | 493 kts | 102° |
| 2026-05-04 21:47 | 46.72918 | 16.08390 | 32998 ft | 495 kts | 102° |
| 2026-05-04 21:48 | 46.71589 | 16.18234 | 32999 ft | 495 kts | 102° |
| 2026-05-04 21:48 | 46.70251 | 16.28070 | 33000 ft | 495 kts | 102° |
| 2026-05-04 21:49 | 46.68906 | 16.37897 | 32999 ft | 494 kts | 102° |
| 2026-05-04 21:49 | 46.67604 | 16.47717 | 33001 ft | 494 kts | 100° |
| 2026-05-04 21:50 | 46.66489 | 16.57570 | 33000 ft | 493 kts | 99° |
| 2026-05-04 21:50 | 46.65406 | 16.67348 | 33004 ft | 492 kts | 99° |
| 2026-05-04 21:51 | 46.64284 | 16.77177 | 33016 ft | 492 kts | 100° |
| 2026-05-04 21:51 | 46.63136 | 16.86993 | 33021 ft | 492 kts | 99° |
| 2026-05-04 21:52 | 46.61976 | 16.96800 | 33015 ft | 492 kts | 99° |
| 2026-05-04 21:52 | 46.60824 | 17.06475 | 33020 ft | 491 kts | 99° |
| 2026-05-04 21:53 | 46.59650 | 17.16266 | 33028 ft | 491 kts | 100° |
| 2026-05-04 21:53 | 46.58469 | 17.26049 | 33018 ft | 491 kts | 99° |
| 2026-05-04 21:54 | 46.57280 | 17.35822 | 33023 ft | 491 kts | 99° |
| 2026-05-04 21:54 | 46.56082 | 17.45597 | 33018 ft | 491 kts | 99° |
| 2026-05-04 21:55 | 46.54876 | 17.55370 | 33019 ft | 492 kts | 99° |
| 2026-05-04 21:55 | 46.53660 | 17.65145 | 33025 ft | 492 kts | 99° |
| 2026-05-04 21:56 | 46.52435 | 17.74922 | 33024 ft | 493 kts | 99° |
| 2026-05-04 21:56 | 46.51200 | 17.84706 | 33033 ft | 493 kts | 99° |
| 2026-05-04 21:57 | 46.49956 | 17.94495 | 33032 ft | 493 kts | 99° |
| 2026-05-04 21:57 | 46.48723 | 18.04124 | 33037 ft | 494 kts | 99° |
| 2026-05-04 21:58 | 46.47461 | 18.13921 | 33035 ft | 494 kts | 99° |
| 2026-05-04 21:58 | 46.46190 | 18.23708 | 33041 ft | 494 kts | 99° |
| 2026-05-04 21:59 | 46.44910 | 18.33497 | 33043 ft | 494 kts | 99° |
| 2026-05-04 21:59 | 46.43623 | 18.43275 | 33048 ft | 494 kts | 99° |
| 2026-05-04 22:00 | 46.42326 | 18.53055 | 33046 ft | 494 kts | 99° |
| 2026-05-04 22:00 | 46.41023 | 18.62823 | 33057 ft | 493 kts | 99° |
| 2026-05-04 22:01 | 46.39712 | 18.72574 | 33058 ft | 493 kts | 99° |
| 2026-05-04 22:01 | 46.38394 | 18.82318 | 33066 ft | 493 kts | 99° |
| 2026-05-04 22:02 | 46.37066 | 18.92062 | 33059 ft | 493 kts | 99° |
| 2026-05-04 22:02 | 46.35747 | 19.01678 | 33062 ft | 493 kts | 99° |
| 2026-05-04 22:03 | 46.34404 | 19.11412 | 33068 ft | 493 kts | 99° |
| 2026-05-04 22:03 | 46.33282 | 19.19492 | 33079 ft | 493 kts | 99° |
| 2026-05-04 22:04 | 46.31922 | 19.29221 | 33069 ft | 493 kts | 100° |
| 2026-05-04 22:04 | 46.30555 | 19.38942 | 33070 ft | 493 kts | 100° |
| 2026-05-04 22:05 | 46.29180 | 19.48654 | 33074 ft | 493 kts | 100° |
| 2026-05-04 22:05 | 46.27798 | 19.58356 | 33081 ft | 493 kts | 100° |
| 2026-05-04 22:06 | 46.26408 | 19.68050 | 33072 ft | 493 kts | 100° |
| 2026-05-04 22:06 | 46.25009 | 19.77744 | 33077 ft | 493 kts | 100° |
| 2026-05-04 22:07 | 46.23602 | 19.87430 | 33076 ft | 493 kts | 100° |
| 2026-05-04 22:07 | 46.22187 | 19.97117 | 33106 ft | 494 kts | 100° |
| 2026-05-04 22:07 | 46.21490 | 20.01867 | 33315 ft | 495 kts | 100° |
| 2026-05-04 22:08 | 46.20775 | 20.06719 | 33652 ft | 493 kts | 100° |
| 2026-05-04 22:08 | 46.20061 | 20.11550 | 33993 ft | 491 kts | 100° |
| 2026-05-04 22:08 | 46.19348 | 20.16360 | 34273 ft | 490 kts | 100° |
| 2026-05-04 22:08 | 46.18634 | 20.21165 | 34513 ft | 489 kts | 100° |
| 2026-05-04 22:09 | 46.17919 | 20.25959 | 34787 ft | 488 kts | 100° |
| 2026-05-04 22:09 | 46.17207 | 20.30731 | 35009 ft | 487 kts | 100° |
| 2026-05-04 22:09 | 46.16490 | 20.35516 | 35030 ft | 488 kts | 100° |
| 2026-05-04 22:10 | 46.14852 | 20.44922 | 35067 ft | 486 kts | 105° |
| 2026-05-04 22:10 | 46.12866 | 20.54216 | 35069 ft | 485 kts | 105° |
| 2026-05-04 22:11 | 46.10862 | 20.63483 | 35071 ft | 484 kts | 105° |
| 2026-05-04 22:11 | 46.08871 | 20.72748 | 35089 ft | 484 kts | 105° |
| 2026-05-04 22:12 | 46.06888 | 20.82004 | 35070 ft | 483 kts | 105° |
| 2026-05-04 22:12 | 46.04903 | 20.91243 | 35076 ft | 483 kts | 105° |
| 2026-05-04 22:13 | 46.02939 | 21.00340 | 35073 ft | 482 kts | 105° |
| 2026-05-04 22:13 | 46.00941 | 21.09548 | 35084 ft | 482 kts | 105° |
| 2026-05-04 22:14 | 45.98946 | 21.18699 | 35075 ft | 482 kts | 105° |
| 2026-05-04 22:14 | 45.96934 | 21.27890 | 35078 ft | 482 kts | 105° |
| 2026-05-04 22:15 | 45.94916 | 21.37071 | 35070 ft | 482 kts | 105° |
| 2026-05-04 22:15 | 45.92892 | 21.46231 | 35092 ft | 480 kts | 104° |
| 2026-05-04 22:16 | 45.90867 | 21.55359 | 35075 ft | 479 kts | 104° |
| 2026-05-04 22:16 | 45.88842 | 21.64452 | 35089 ft | 477 kts | 105° |
| 2026-05-04 22:17 | 45.86817 | 21.73506 | 35092 ft | 476 kts | 105° |
| 2026-05-04 22:17 | 45.84787 | 21.82538 | 35109 ft | 475 kts | 104° |
| 2026-05-04 22:18 | 45.82752 | 21.91562 | 35101 ft | 475 kts | 105° |
| 2026-05-04 22:18 | 45.80737 | 22.00458 | 35103 ft | 476 kts | 105° |
| 2026-05-04 22:19 | 45.78686 | 22.09475 | 35105 ft | 476 kts | 105° |
| 2026-05-04 22:19 | 45.76626 | 22.18491 | 35110 ft | 477 kts | 105° |
| 2026-05-04 22:20 | 45.74554 | 22.27525 | 35120 ft | 478 kts | 105° |
| 2026-05-04 22:20 | 45.72470 | 22.36571 | 35122 ft | 479 kts | 105° |
| 2026-05-04 22:21 | 45.70377 | 22.45614 | 35134 ft | 479 kts | 105° |
| 2026-05-04 22:21 | 45.68288 | 22.54613 | 35132 ft | 480 kts | 106° |
| 2026-05-04 22:22 | 45.66175 | 22.63668 | 35123 ft | 480 kts | 106° |
| 2026-05-04 22:22 | 45.64055 | 22.72721 | 35137 ft | 480 kts | 106° |
| 2026-05-04 22:23 | 45.61930 | 22.81759 | 35124 ft | 480 kts | 106° |
| 2026-05-04 22:23 | 45.59797 | 22.90789 | 35140 ft | 480 kts | 106° |
| 2026-05-04 22:24 | 45.57659 | 22.99805 | 35129 ft | 479 kts | 106° |
| 2026-05-04 22:24 | 45.55540 | 23.08702 | 35128 ft | 479 kts | 106° |
| 2026-05-04 22:25 | 45.53389 | 23.17700 | 35131 ft | 479 kts | 106° |
| 2026-05-04 22:25 | 45.51234 | 23.26681 | 35137 ft | 479 kts | 106° |
| 2026-05-04 22:26 | 45.49071 | 23.35655 | 35121 ft | 478 kts | 107° |
| 2026-05-04 22:26 | 45.46905 | 23.44606 | 35127 ft | 478 kts | 107° |
| 2026-05-04 22:27 | 45.44734 | 23.53544 | 35128 ft | 477 kts | 107° |
| 2026-05-04 22:27 | 45.42556 | 23.62474 | 35114 ft | 478 kts | 107° |
| 2026-05-04 22:28 | 45.40371 | 23.71401 | 35122 ft | 477 kts | 107° |
| 2026-05-04 22:28 | 45.38178 | 23.80324 | 35111 ft | 478 kts | 107° |
| 2026-05-04 22:29 | 45.35979 | 23.89231 | 35131 ft | 477 kts | 107° |
| 2026-05-04 22:29 | 45.33773 | 23.98134 | 35122 ft | 478 kts | 107° |
| 2026-05-04 22:30 | 45.31589 | 24.06919 | 35107 ft | 479 kts | 107° |
| 2026-05-04 22:30 | 45.29362 | 24.15837 | 35099 ft | 479 kts | 107° |
| 2026-05-04 22:31 | 45.27127 | 24.24751 | 35118 ft | 479 kts | 107° |
| 2026-05-04 22:31 | 45.24898 | 24.33610 | 35103 ft | 480 kts | 107° |
| 2026-05-04 22:32 | 45.22647 | 24.42524 | 35096 ft | 480 kts | 108° |
| 2026-05-04 22:32 | 45.20387 | 24.51434 | 35090 ft | 480 kts | 108° |
| 2026-05-04 22:33 | 45.18122 | 24.60330 | 35104 ft | 479 kts | 108° |
| 2026-05-04 22:33 | 45.15853 | 24.69211 | 35097 ft | 479 kts | 108° |
| 2026-05-04 22:34 | 45.13577 | 24.78084 | 35095 ft | 479 kts | 108° |
| 2026-05-04 22:34 | 45.11296 | 24.86940 | 35096 ft | 479 kts | 108° |
| 2026-05-04 22:35 | 45.09011 | 24.95784 | 35101 ft | 478 kts | 108° |
| 2026-05-04 22:35 | 45.06748 | 25.04508 | 35092 ft | 478 kts | 108° |
| 2026-05-04 22:36 | 45.04451 | 25.13328 | 35081 ft | 478 kts | 108° |
| 2026-05-04 22:36 | 45.02150 | 25.22135 | 35083 ft | 478 kts | 108° |
| 2026-05-04 22:37 | 44.99848 | 25.30916 | 35068 ft | 478 kts | 109° |
| 2026-05-04 22:37 | 44.97122 | 25.39493 | 35081 ft | 479 kts | 115° |
| 2026-05-04 22:38 | 44.94131 | 25.47905 | 35077 ft | 480 kts | 115° |
| 2026-05-04 22:38 | 44.91151 | 25.56275 | 35053 ft | 481 kts | 115° |
| 2026-05-04 22:39 | 44.88165 | 25.64717 | 35054 ft | 482 kts | 116° |
| 2026-05-04 22:39 | 44.85175 | 25.73180 | 35056 ft | 482 kts | 116° |
| 2026-05-04 22:40 | 44.82177 | 25.81644 | 35054 ft | 483 kts | 116° |
| 2026-05-04 22:40 | 44.79170 | 25.90103 | 35050 ft | 483 kts | 116° |
| 2026-05-04 22:41 | 44.76152 | 25.98565 | 35047 ft | 484 kts | 116° |
| 2026-05-04 22:41 | 44.73169 | 26.06905 | 35044 ft | 483 kts | 116° |
| 2026-05-04 22:42 | 44.70141 | 26.15341 | 35049 ft | 483 kts | 116° |
| 2026-05-04 22:42 | 44.67111 | 26.23757 | 35050 ft | 482 kts | 116° |
| 2026-05-04 22:43 | 44.64080 | 26.32152 | 35038 ft | 481 kts | 116° |
| 2026-05-04 22:43 | 44.61048 | 26.40521 | 35039 ft | 480 kts | 116° |
| 2026-05-04 22:44 | 44.58016 | 26.48866 | 35040 ft | 480 kts | 116° |
| 2026-05-04 22:44 | 44.54983 | 26.57191 | 35046 ft | 479 kts | 116° |
| 2026-05-04 22:45 | 44.51947 | 26.65496 | 35039 ft | 479 kts | 116° |
| 2026-05-04 22:45 | 44.47386 | 26.77926 | 35048 ft | 478 kts | 116° |
| 2026-05-04 22:46 | 44.44337 | 26.86207 | 35044 ft | 479 kts | 117° |
| 2026-05-04 22:46 | 44.41279 | 26.94483 | 35046 ft | 479 kts | 117° |
| 2026-05-04 22:47 | 44.38261 | 27.02629 | 35047 ft | 479 kts | 117° |
| 2026-05-04 22:47 | 44.35188 | 27.10900 | 35048 ft | 480 kts | 117° |
| 2026-05-04 22:48 | 44.32105 | 27.19172 | 35051 ft | 481 kts | 117° |
| 2026-05-04 22:48 | 44.29009 | 27.27452 | 35053 ft | 481 kts | 117° |
| 2026-05-04 22:49 | 44.25904 | 27.35735 | 35049 ft | 482 kts | 117° |
| 2026-05-04 22:49 | 44.22810 | 27.43961 | 35054 ft | 482 kts | 117° |
| 2026-05-04 22:50 | 44.19690 | 27.52234 | 35054 ft | 482 kts | 117° |
| 2026-05-04 22:50 | 44.16570 | 27.60480 | 35051 ft | 481 kts | 117° |
| 2026-05-04 22:51 | 44.13450 | 27.68705 | 35054 ft | 480 kts | 117° |
| 2026-05-04 22:51 | 44.10328 | 27.76909 | 35068 ft | 479 kts | 117° |
| 2026-05-04 22:52 | 44.07207 | 27.85086 | 35058 ft | 478 kts | 117° |
| 2026-05-04 22:52 | 44.04593 | 27.91915 | 35052 ft | 477 kts | 117° |
| 2026-05-04 22:53 | 44.01492 | 27.99997 | 35059 ft | 477 kts | 117° |
| 2026-05-04 22:53 | 43.98417 | 28.07990 | 35073 ft | 476 kts | 116° |
| 2026-05-04 22:54 | 43.95290 | 28.16094 | 35059 ft | 476 kts | 116° |
| 2026-05-04 22:54 | 43.92158 | 28.24186 | 35063 ft | 476 kts | 116° |
| 2026-05-04 22:55 | 43.89025 | 28.32258 | 35064 ft | 475 kts | 117° |
| 2026-05-04 22:55 | 43.85886 | 28.40322 | 35063 ft | 475 kts | 116° |
| 2026-05-04 22:56 | 43.82743 | 28.48376 | 35059 ft | 475 kts | 116° |
| 2026-05-04 22:56 | 43.79593 | 28.56423 | 35058 ft | 475 kts | 116° |
| 2026-05-04 22:57 | 43.76439 | 28.64460 | 35061 ft | 476 kts | 116° |
| 2026-05-04 22:57 | 43.73274 | 28.72504 | 35058 ft | 476 kts | 116° |
| 2026-05-04 22:58 | 43.70078 | 28.80531 | 35054 ft | 478 kts | 118° |
| 2026-05-04 22:58 | 43.66289 | 28.88101 | 35062 ft | 480 kts | 124° |
| 2026-05-04 22:59 | 43.62332 | 28.95538 | 35060 ft | 481 kts | 123° |
| 2026-05-04 22:59 | 43.58426 | 29.02907 | 35053 ft | 482 kts | 123° |
| 2026-05-04 23:00 | 43.54479 | 29.10394 | 35052 ft | 483 kts | 123° |
| 2026-05-04 23:00 | 43.50532 | 29.17884 | 35064 ft | 483 kts | 123° |
| 2026-05-04 23:01 | 43.46576 | 29.25373 | 35043 ft | 484 kts | 123° |
| 2026-05-04 23:01 | 43.42641 | 29.32798 | 35041 ft | 483 kts | 123° |
| 2026-05-04 23:02 | 43.38675 | 29.40263 | 35040 ft | 483 kts | 123° |
| 2026-05-04 23:02 | 43.34708 | 29.47709 | 35029 ft | 483 kts | 123° |
| 2026-05-04 23:03 | 43.30737 | 29.55146 | 35044 ft | 482 kts | 123° |
| 2026-05-04 23:03 | 43.26768 | 29.62560 | 35026 ft | 482 kts | 123° |
| 2026-05-04 23:04 | 43.22800 | 29.69954 | 35021 ft | 481 kts | 123° |
| 2026-05-04 23:04 | 43.18829 | 29.77335 | 35018 ft | 481 kts | 123° |
| 2026-05-04 23:05 | 43.14854 | 29.84704 | 35015 ft | 481 kts | 123° |
| 2026-05-04 23:05 | 43.10876 | 29.92063 | 35030 ft | 481 kts | 123° |
| 2026-05-04 23:06 | 43.06890 | 29.99416 | 35022 ft | 481 kts | 123° |
| 2026-05-04 23:06 | 43.02955 | 30.06659 | 35007 ft | 481 kts | 123° |
| 2026-05-04 23:07 | 42.98960 | 30.13992 | 35008 ft | 481 kts | 123° |
| 2026-05-04 23:07 | 42.94957 | 30.21322 | 35028 ft | 481 kts | 122° |
| 2026-05-04 23:08 | 42.90953 | 30.28636 | 35003 ft | 481 kts | 122° |
| 2026-05-04 23:08 | 42.86952 | 30.35929 | 34990 ft | 479 kts | 122° |
| 2026-05-04 23:09 | 42.82963 | 30.43182 | 34993 ft | 478 kts | 122° |
| 2026-05-04 23:09 | 42.79005 | 30.50365 | 35000 ft | 477 kts | 122° |
| 2026-05-04 23:10 | 42.75201 | 30.57770 | 34980 ft | 470 kts | 114° |
| 2026-05-04 23:10 | 42.72628 | 30.65772 | 34989 ft | 461 kts | 102° |
| 2026-05-04 23:11 | 42.70981 | 30.74157 | 35023 ft | 459 kts | 99° |
| 2026-05-04 23:11 | 42.69386 | 30.82564 | 34986 ft | 459 kts | 99° |
| 2026-05-04 23:12 | 42.67760 | 30.90963 | 34974 ft | 460 kts | 99° |
| 2026-05-04 23:12 | 42.66109 | 30.99354 | 34973 ft | 460 kts | 100° |
| 2026-05-04 23:13 | 42.64467 | 31.07633 | 34986 ft | 460 kts | 99° |
| 2026-05-04 23:13 | 42.62797 | 31.16020 | 34970 ft | 460 kts | 99° |
| 2026-05-04 23:14 | 42.61122 | 31.24403 | 34961 ft | 460 kts | 99° |
| 2026-05-04 23:14 | 42.59442 | 31.32779 | 34956 ft | 460 kts | 99° |
| 2026-05-04 23:15 | 42.57757 | 31.41144 | 34976 ft | 460 kts | 99° |
| 2026-05-04 23:15 | 42.56063 | 31.49519 | 34960 ft | 460 kts | 99° |
| 2026-05-04 23:16 | 42.54362 | 31.57890 | 34951 ft | 460 kts | 99° |
| 2026-05-04 23:16 | 42.52655 | 31.66259 | 34946 ft | 460 kts | 99° |
| 2026-05-04 23:17 | 42.50942 | 31.74623 | 34949 ft | 461 kts | 100° |
| 2026-05-04 23:17 | 42.49234 | 31.82931 | 34942 ft | 461 kts | 100° |
| 2026-05-04 23:18 | 42.47507 | 31.91293 | 34937 ft | 461 kts | 100° |
| 2026-05-04 23:18 | 42.45774 | 31.99653 | 34940 ft | 461 kts | 100° |
| 2026-05-04 23:19 | 42.44061 | 32.07887 | 34953 ft | 462 kts | 100° |
| 2026-05-04 23:19 | 42.42313 | 32.16251 | 34944 ft | 462 kts | 100° |
| 2026-05-04 23:20 | 42.40560 | 32.24605 | 34934 ft | 462 kts | 101° |
| 2026-05-04 23:20 | 42.38801 | 32.32954 | 34933 ft | 461 kts | 101° |
| 2026-05-04 23:21 | 42.37038 | 32.41290 | 34950 ft | 461 kts | 101° |
| 2026-05-04 23:21 | 42.35271 | 32.49621 | 34940 ft | 461 kts | 101° |
| 2026-05-04 23:22 | 42.33564 | 32.57955 | 34932 ft | 458 kts | 97° |
| 2026-05-04 23:22 | 42.32715 | 32.66342 | 34938 ft | 452 kts | 91° |
| 2026-05-04 23:23 | 42.32100 | 32.74794 | 34936 ft | 452 kts | 91° |
| 2026-05-04 23:23 | 42.31462 | 32.83243 | 34944 ft | 452 kts | 91° |
| 2026-05-04 23:24 | 42.30801 | 32.91697 | 34941 ft | 453 kts | 91° |
| 2026-05-04 23:24 | 42.30129 | 33.00117 | 34949 ft | 453 kts | 91° |
| 2026-05-04 23:25 | 42.29453 | 33.08506 | 34978 ft | 454 kts | 91° |
| 2026-05-04 23:25 | 42.28764 | 33.16982 | 34947 ft | 454 kts | 92° |
| 2026-05-04 23:26 | 42.28068 | 33.25464 | 34946 ft | 454 kts | 92° |
| 2026-05-04 23:26 | 42.27366 | 33.33936 | 34945 ft | 454 kts | 92° |
| 2026-05-04 23:27 | 42.26659 | 33.42404 | 34948 ft | 454 kts | 92° |
| 2026-05-04 23:27 | 42.25946 | 33.50867 | 34956 ft | 453 kts | 92° |
| 2026-05-04 23:28 | 42.25228 | 33.59308 | 34943 ft | 452 kts | 92° |
| 2026-05-04 23:28 | 42.24505 | 33.67735 | 34944 ft | 451 kts | 92° |
| 2026-05-04 23:29 | 42.23778 | 33.76139 | 34947 ft | 451 kts | 93° |
| 2026-05-04 23:29 | 42.23050 | 33.84476 | 34965 ft | 450 kts | 93° |
| 2026-05-04 23:30 | 42.22312 | 33.92863 | 34951 ft | 450 kts | 93° |
| 2026-05-04 23:30 | 42.21575 | 34.01167 | 34951 ft | 451 kts | 93° |
| 2026-05-04 23:31 | 42.20823 | 34.09563 | 34953 ft | 451 kts | 94° |
| 2026-05-04 23:31 | 42.20064 | 34.17965 | 34951 ft | 451 kts | 94° |
| 2026-05-04 23:32 | 42.19299 | 34.26378 | 34952 ft | 453 kts | 94° |
| 2026-05-04 23:32 | 42.18525 | 34.34813 | 34951 ft | 454 kts | 94° |
| 2026-05-04 23:33 | 42.17743 | 34.43266 | 34953 ft | 455 kts | 94° |
| 2026-05-04 23:33 | 42.16953 | 34.51730 | 34952 ft | 456 kts | 94° |
| 2026-05-04 23:34 | 42.16155 | 34.60208 | 34961 ft | 457 kts | 95° |
| 2026-05-04 23:34 | 42.15349 | 34.68715 | 34955 ft | 458 kts | 95° |
| 2026-05-04 23:35 | 42.14534 | 34.77237 | 34952 ft | 459 kts | 95° |
| 2026-05-04 23:35 | 42.13711 | 34.85775 | 34951 ft | 460 kts | 95° |
| 2026-05-04 23:36 | 42.12881 | 34.94320 | 34952 ft | 460 kts | 95° |
| 2026-05-04 23:36 | 42.12062 | 35.02695 | 34949 ft | 461 kts | 96° |
| 2026-05-04 23:37 | 42.11217 | 35.11256 | 34955 ft | 461 kts | 96° |
| 2026-05-04 23:37 | 42.10366 | 35.19817 | 34953 ft | 462 kts | 96° |
| 2026-05-04 23:38 | 42.09508 | 35.28384 | 34951 ft | 462 kts | 96° |
| 2026-05-04 23:38 | 42.08642 | 35.36963 | 34942 ft | 463 kts | 96° |
| 2026-05-04 23:39 | 42.07767 | 35.45567 | 34955 ft | 465 kts | 96° |
| 2026-05-04 23:39 | 42.06882 | 35.54198 | 34952 ft | 466 kts | 96° |
| 2026-05-04 23:40 | 42.05989 | 35.62848 | 34945 ft | 467 kts | 96° |
| 2026-05-04 23:40 | 42.05087 | 35.71515 | 34951 ft | 468 kts | 97° |
| 2026-05-04 23:41 | 42.04177 | 35.80194 | 34943 ft | 469 kts | 97° |
| 2026-05-04 23:41 | 42.03261 | 35.88869 | 34945 ft | 469 kts | 97° |
| 2026-05-04 23:42 | 42.02338 | 35.97543 | 34945 ft | 468 kts | 97° |
| 2026-05-04 23:42 | 42.01420 | 36.06106 | 34947 ft | 468 kts | 97° |
| 2026-05-04 23:43 | 42.00485 | 36.14768 | 34936 ft | 468 kts | 98° |
| 2026-05-04 23:43 | 41.99545 | 36.23413 | 34940 ft | 468 kts | 98° |
| 2026-05-04 23:44 | 41.98758 | 36.30602 | 34936 ft | 468 kts | 98° |
| 2026-05-04 23:44 | 41.97805 | 36.39249 | 34937 ft | 468 kts | 98° |
| 2026-05-04 23:45 | 41.96847 | 36.47888 | 34938 ft | 467 kts | 98° |
| 2026-05-04 23:45 | 41.95882 | 36.56524 | 34931 ft | 467 kts | 98° |
| 2026-05-04 23:46 | 41.94910 | 36.65160 | 34935 ft | 468 kts | 98° |
| 2026-05-04 23:46 | 41.93931 | 36.73799 | 34940 ft | 468 kts | 98° |
| 2026-05-04 23:47 | 41.92946 | 36.82442 | 34940 ft | 469 kts | 98° |
| 2026-05-04 23:47 | 41.91952 | 36.91090 | 34935 ft | 469 kts | 99° |
| 2026-05-04 23:48 | 41.90953 | 36.99746 | 34932 ft | 470 kts | 99° |
| 2026-05-04 23:48 | 41.89939 | 37.08295 | 34936 ft | 470 kts | 99° |
| 2026-05-04 23:49 | 41.88822 | 37.16878 | 34936 ft | 470 kts | 100° |
| 2026-05-04 23:49 | 41.87672 | 37.25518 | 34931 ft | 471 kts | 100° |
| 2026-05-04 23:50 | 41.86524 | 37.34172 | 34934 ft | 471 kts | 100° |
| 2026-05-04 23:50 | 41.85377 | 37.42826 | 34929 ft | 471 kts | 100° |
| 2026-05-04 23:51 | 41.84226 | 37.51478 | 34935 ft | 471 kts | 101° |
| 2026-05-04 23:51 | 41.83069 | 37.60127 | 34930 ft | 471 kts | 101° |
| 2026-05-04 23:52 | 41.81905 | 37.68775 | 34934 ft | 471 kts | 101° |
| 2026-05-04 23:52 | 41.80734 | 37.77415 | 34936 ft | 471 kts | 101° |
| 2026-05-04 23:53 | 41.79556 | 37.86057 | 34930 ft | 471 kts | 101° |
| 2026-05-04 23:53 | 41.78373 | 37.94691 | 34919 ft | 471 kts | 101° |
| 2026-05-04 23:54 | 41.77198 | 38.03215 | 34931 ft | 471 kts | 101° |
| 2026-05-04 23:54 | 41.76001 | 38.11845 | 34928 ft | 471 kts | 101° |
| 2026-05-04 23:55 | 41.74797 | 38.20474 | 34918 ft | 471 kts | 102° |
| 2026-05-04 23:56 | 41.72980 | 38.33417 | 34926 ft | 472 kts | 102° |
| 2026-05-04 23:56 | 41.71757 | 38.42057 | 34921 ft | 473 kts | 102° |
| 2026-05-04 23:57 | 41.70527 | 38.50701 | 34918 ft | 473 kts | 102° |
| 2026-05-04 23:57 | 41.69290 | 38.59350 | 34914 ft | 474 kts | 102° |
| 2026-05-04 23:58 | 41.68044 | 38.68009 | 34923 ft | 474 kts | 102° |
| 2026-05-04 23:58 | 41.66791 | 38.76666 | 34923 ft | 474 kts | 102° |
| 2026-05-04 23:59 | 41.65531 | 38.85331 | 34927 ft | 475 kts | 102° |
| 2026-05-04 23:59 | 41.64272 | 38.93933 | 34924 ft | 475 kts | 103° |
| 2026-05-05 00:00 | 41.63015 | 39.02477 | 34922 ft | 475 kts | 103° |
| 2026-05-05 00:00 | 41.61735 | 39.11137 | 34930 ft | 475 kts | 103° |
| 2026-05-05 00:01 | 41.60445 | 39.19809 | 34929 ft | 476 kts | 103° |
| 2026-05-05 00:01 | 41.59148 | 39.28482 | 34916 ft | 476 kts | 103° |
| 2026-05-05 00:02 | 41.57843 | 39.37164 | 34922 ft | 477 kts | 103° |
| 2026-05-05 00:02 | 41.56527 | 39.45867 | 34927 ft | 479 kts | 103° |
| 2026-05-05 00:03 | 41.55201 | 39.54592 | 34925 ft | 480 kts | 103° |
| 2026-05-05 00:03 | 41.53865 | 39.63335 | 34915 ft | 481 kts | 103° |
| 2026-05-05 00:04 | 41.52522 | 39.72083 | 34920 ft | 482 kts | 103° |
| 2026-05-05 00:04 | 41.51169 | 39.80845 | 34922 ft | 482 kts | 103° |
| 2026-05-05 00:05 | 41.49809 | 39.89603 | 34925 ft | 482 kts | 104° |
| 2026-05-05 00:05 | 41.48442 | 39.98363 | 34923 ft | 482 kts | 104° |
| 2026-05-05 00:06 | 41.47088 | 40.06995 | 34929 ft | 482 kts | 104° |
| 2026-05-05 00:06 | 41.45710 | 40.15729 | 34928 ft | 481 kts | 104° |
| 2026-05-05 00:07 | 41.44328 | 40.24447 | 34928 ft | 481 kts | 104° |
| 2026-05-05 00:07 | 41.42940 | 40.33155 | 34912 ft | 480 kts | 104° |
| 2026-05-05 00:08 | 41.41556 | 40.41798 | 34925 ft | 480 kts | 104° |
| 2026-05-05 00:08 | 41.40154 | 40.50502 | 34928 ft | 481 kts | 104° |
| 2026-05-05 00:09 | 41.38743 | 40.59220 | 34924 ft | 482 kts | 104° |
| 2026-05-05 00:09 | 41.37324 | 40.67948 | 34904 ft | 483 kts | 104° |
| 2026-05-05 00:10 | 41.35894 | 40.76690 | 34913 ft | 484 kts | 105° |
| 2026-05-05 00:10 | 41.34454 | 40.85453 | 34920 ft | 485 kts | 105° |
| 2026-05-05 00:11 | 41.33006 | 40.94225 | 34917 ft | 486 kts | 105° |
| 2026-05-05 00:11 | 41.31570 | 41.02878 | 34899 ft | 486 kts | 105° |
| 2026-05-05 00:12 | 41.30106 | 41.11658 | 34913 ft | 486 kts | 105° |
| 2026-05-05 00:12 | 41.28633 | 41.20444 | 34911 ft | 487 kts | 105° |
| 2026-05-05 00:13 | 41.27154 | 41.29225 | 34911 ft | 487 kts | 105° |
| 2026-05-05 00:13 | 41.25668 | 41.37998 | 34887 ft | 487 kts | 106° |
| 2026-05-05 00:14 | 41.24175 | 41.46776 | 34916 ft | 487 kts | 106° |
| 2026-05-05 00:14 | 41.22672 | 41.55560 | 34912 ft | 488 kts | 106° |
| 2026-05-05 00:15 | 41.21161 | 41.64357 | 34908 ft | 489 kts | 106° |
| 2026-05-05 00:15 | 41.19643 | 41.73152 | 34877 ft | 489 kts | 106° |
| 2026-05-05 00:16 | 41.18120 | 41.81938 | 34897 ft | 488 kts | 107° |
| 2026-05-05 00:16 | 41.16593 | 41.90691 | 34920 ft | 487 kts | 107° |
| 2026-05-05 00:17 | 41.15056 | 41.99456 | 34901 ft | 488 kts | 107° |
| 2026-05-05 00:17 | 41.13540 | 42.08071 | 34906 ft | 488 kts | 107° |
| 2026-05-05 00:18 | 41.11992 | 42.16833 | 34912 ft | 489 kts | 107° |
| 2026-05-05 00:18 | 41.10433 | 42.25607 | 34942 ft | 489 kts | 107° |
| 2026-05-05 00:19 | 41.08864 | 42.34391 | 34933 ft | 490 kts | 107° |
| 2026-05-05 00:19 | 41.07297 | 42.43123 | 34923 ft | 490 kts | 108° |
| 2026-05-05 00:20 | 41.05714 | 42.51913 | 34919 ft | 490 kts | 108° |
| 2026-05-05 00:20 | 41.04124 | 42.60698 | 34931 ft | 490 kts | 108° |
| 2026-05-05 00:21 | 41.02527 | 42.69473 | 34934 ft | 490 kts | 108° |
| 2026-05-05 00:21 | 41.00924 | 42.78245 | 34920 ft | 491 kts | 108° |
| 2026-05-05 00:22 | 40.99312 | 42.87022 | 34937 ft | 492 kts | 108° |
| 2026-05-05 00:22 | 40.97689 | 42.95820 | 34935 ft | 493 kts | 108° |
| 2026-05-05 00:23 | 40.96080 | 43.04505 | 34943 ft | 494 kts | 108° |
| 2026-05-05 00:23 | 40.94435 | 43.13341 | 34938 ft | 495 kts | 108° |
| 2026-05-05 00:24 | 40.92778 | 43.22202 | 34929 ft | 497 kts | 109° |
| 2026-05-05 00:24 | 40.91110 | 43.31083 | 34929 ft | 498 kts | 108° |
| 2026-05-05 00:25 | 40.89434 | 43.39966 | 34940 ft | 498 kts | 108° |
| 2026-05-05 00:25 | 40.87752 | 43.48842 | 34940 ft | 497 kts | 108° |
| 2026-05-05 00:26 | 40.86068 | 43.57693 | 34937 ft | 496 kts | 108° |
| 2026-05-05 00:26 | 40.84416 | 43.66539 | 34933 ft | 497 kts | 105° |
| 2026-05-05 00:27 | 40.83662 | 43.75639 | 34923 ft | 501 kts | 95° |
| 2026-05-05 00:27 | 40.83454 | 43.84835 | 34936 ft | 501 kts | 96° |
| 2026-05-05 00:28 | 40.83161 | 43.93982 | 34933 ft | 503 kts | 96° |
| 2026-05-05 00:28 | 40.82844 | 44.03089 | 34930 ft | 505 kts | 97° |
| 2026-05-05 00:29 | 40.82518 | 44.12368 | 34924 ft | 506 kts | 97° |
| 2026-05-05 00:29 | 40.82190 | 44.21672 | 34901 ft | 508 kts | 97° |
| 2026-05-05 00:30 | 40.81854 | 44.31011 | 34899 ft | 510 kts | 97° |
| 2026-05-05 00:30 | 40.81510 | 44.40385 | 34906 ft | 512 kts | 97° |
| 2026-05-05 00:31 | 40.81155 | 44.49793 | 34876 ft | 514 kts | 97° |
| 2026-05-05 00:31 | 40.80855 | 44.57681 | 34884 ft | 514 kts | 97° |
| 2026-05-05 00:32 | 40.80425 | 44.68635 | 34860 ft | 514 kts | 98° |
| 2026-05-05 00:32 | 40.80045 | 44.78054 | 34877 ft | 514 kts | 98° |
| 2026-05-05 00:33 | 40.79724 | 44.85899 | 34864 ft | 515 kts | 98° |
| 2026-05-05 00:33 | 40.79333 | 44.95341 | 34870 ft | 516 kts | 98° |
| 2026-05-05 00:34 | 40.78941 | 45.04659 | 34829 ft | 516 kts | 98° |
| 2026-05-05 00:34 | 40.78532 | 45.14103 | 34860 ft | 516 kts | 99° |
| 2026-05-05 00:35 | 40.78112 | 45.23552 | 34869 ft | 516 kts | 99° |
| 2026-05-05 00:35 | 40.77689 | 45.33005 | 34844 ft | 516 kts | 99° |
| 2026-05-05 00:36 | 40.77260 | 45.42457 | 34850 ft | 516 kts | 99° |
| 2026-05-05 00:36 | 40.76784 | 45.51900 | 34833 ft | 513 kts | 102° |
| 2026-05-05 00:37 | 40.75979 | 45.61230 | 34862 ft | 512 kts | 103° |
| 2026-05-05 00:37 | 40.75094 | 45.70541 | 34865 ft | 512 kts | 103° |
| 2026-05-05 00:38 | 40.74219 | 45.79866 | 34859 ft | 513 kts | 103° |
| 2026-05-05 00:38 | 40.73358 | 45.89201 | 34843 ft | 513 kts | 104° |
| 2026-05-05 00:39 | 40.72495 | 45.98529 | 34865 ft | 513 kts | 104° |
| 2026-05-05 00:39 | 40.71636 | 46.07717 | 34878 ft | 513 kts | 104° |
| 2026-05-05 00:40 | 40.70754 | 46.17060 | 34879 ft | 515 kts | 104° |
| 2026-05-05 00:40 | 40.69864 | 46.26418 | 34849 ft | 515 kts | 104° |
| 2026-05-05 00:41 | 40.68967 | 46.35765 | 34886 ft | 514 kts | 104° |
| 2026-05-05 00:41 | 40.68066 | 46.45052 | 34882 ft | 514 kts | 104° |
| 2026-05-05 00:42 | 40.67146 | 46.54456 | 34877 ft | 515 kts | 104° |
| 2026-05-05 00:42 | 40.66231 | 46.63747 | 34873 ft | 515 kts | 105° |
| 2026-05-05 00:43 | 40.65302 | 46.73097 | 34873 ft | 515 kts | 105° |
| 2026-05-05 00:43 | 40.64364 | 46.82451 | 34875 ft | 516 kts | 105° |
| 2026-05-05 00:44 | 40.63417 | 46.91819 | 34872 ft | 517 kts | 105° |
| 2026-05-05 00:44 | 40.62475 | 47.01060 | 34872 ft | 517 kts | 105° |
| 2026-05-05 00:45 | 40.61513 | 47.10444 | 34860 ft | 517 kts | 105° |
| 2026-05-05 00:45 | 40.60606 | 47.19843 | 34859 ft | 521 kts | 101° |
| 2026-05-05 00:46 | 40.60304 | 47.29409 | 34873 ft | 525 kts | 99° |
| 2026-05-05 00:46 | 40.60082 | 47.39014 | 34871 ft | 525 kts | 99° |
| 2026-05-05 00:47 | 40.59816 | 47.48615 | 34865 ft | 525 kts | 99° |
| 2026-05-05 00:47 | 40.59517 | 47.58226 | 34865 ft | 525 kts | 99° |
| 2026-05-05 00:48 | 40.59207 | 47.67829 | 34853 ft | 525 kts | 100° |
| 2026-05-05 00:48 | 40.58894 | 47.77432 | 34862 ft | 525 kts | 100° |
| 2026-05-05 00:49 | 40.58573 | 47.87034 | 34858 ft | 526 kts | 100° |
| 2026-05-05 00:49 | 40.58508 | 47.96620 | 34843 ft | 532 kts | 92° |
| 2026-05-05 00:50 | 40.59573 | 48.06201 | 34847 ft | 539 kts | 85° |
| 2026-05-05 00:50 | 40.60839 | 48.15934 | 34847 ft | 540 kts | 87° |
| 2026-05-05 00:51 | 40.61982 | 48.25713 | 34865 ft | 541 kts | 87° |
| 2026-05-05 00:51 | 40.63106 | 48.35525 | 34861 ft | 543 kts | 87° |
| 2026-05-05 00:52 | 40.64234 | 48.45358 | 34865 ft | 543 kts | 88° |
| 2026-05-05 00:52 | 40.65360 | 48.55212 | 34852 ft | 545 kts | 88° |
| 2026-05-05 00:53 | 40.66479 | 48.65078 | 34832 ft | 544 kts | 87° |
| 2026-05-05 00:53 | 40.67590 | 48.74937 | 34844 ft | 544 kts | 87° |
| 2026-05-05 00:54 | 40.68690 | 48.84788 | 34845 ft | 543 kts | 87° |
| 2026-05-05 00:54 | 40.69779 | 48.94616 | 34847 ft | 541 kts | 87° |
| 2026-05-05 00:55 | 40.70840 | 49.04282 | 34874 ft | 540 kts | 87° |
| 2026-05-05 00:55 | 40.71907 | 49.14076 | 34875 ft | 540 kts | 87° |
| 2026-05-05 00:56 | 40.72586 | 49.23845 | 34866 ft | 530 kts | 96° |
| 2026-05-05 00:56 | 40.72035 | 49.33414 | 34878 ft | 518 kts | 106° |
| 2026-05-05 00:57 | 40.70841 | 49.42757 | 34874 ft | 516 kts | 106° |
| 2026-05-05 00:57 | 40.69725 | 49.52108 | 34884 ft | 517 kts | 105° |
| 2026-05-05 00:58 | 40.68608 | 49.61456 | 34881 ft | 517 kts | 106° |
| 2026-05-05 00:58 | 40.67466 | 49.70806 | 34868 ft | 516 kts | 105° |
| 2026-05-05 00:59 | 40.66322 | 49.80131 | 34867 ft | 516 kts | 105° |
| 2026-05-05 00:59 | 40.65172 | 49.89451 | 34865 ft | 516 kts | 105° |
| 2026-05-05 01:00 | 40.64024 | 49.98704 | 34862 ft | 516 kts | 105° |
| 2026-05-05 01:00 | 40.62877 | 50.07890 | 34844 ft | 515 kts | 105° |
| 2026-05-05 01:01 | 40.61708 | 50.17188 | 34861 ft | 515 kts | 105° |
| 2026-05-05 01:01 | 40.60532 | 50.26471 | 34858 ft | 514 kts | 105° |
| 2026-05-05 01:02 | 40.59349 | 50.35751 | 34865 ft | 514 kts | 105° |
| 2026-05-05 01:02 | 40.58160 | 50.45021 | 34849 ft | 514 kts | 105° |
| 2026-05-05 01:03 | 40.56963 | 50.54289 | 34867 ft | 514 kts | 105° |
| 2026-05-05 01:03 | 40.55758 | 50.63553 | 34879 ft | 514 kts | 105° |
| 2026-05-05 01:04 | 40.54545 | 50.72826 | 34877 ft | 515 kts | 105° |
| 2026-05-05 01:04 | 40.52711 | 50.86741 | 34881 ft | 515 kts | 105° |
| 2026-05-05 01:05 | 40.51586 | 50.96058 | 34890 ft | 518 kts | 102° |
| 2026-05-05 01:05 | 40.50763 | 51.05330 | 34889 ft | 520 kts | 102° |
| 2026-05-05 01:06 | 40.49949 | 51.14770 | 34888 ft | 520 kts | 102° |
| 2026-05-05 01:06 | 40.49094 | 51.24213 | 34887 ft | 521 kts | 102° |
| 2026-05-05 01:07 | 40.48220 | 51.33646 | 34877 ft | 520 kts | 102° |
| 2026-05-05 01:07 | 40.47340 | 51.43087 | 34884 ft | 521 kts | 102° |
| 2026-05-05 01:08 | 40.46311 | 51.52482 | 34880 ft | 517 kts | 108° |
| 2026-05-05 01:08 | 40.44634 | 51.61627 | 34884 ft | 515 kts | 110° |
| 2026-05-05 01:09 | 40.42905 | 51.70691 | 34862 ft | 516 kts | 110° |
| 2026-05-05 01:09 | 40.41178 | 51.79900 | 34854 ft | 516 kts | 109° |
| 2026-05-05 01:10 | 40.39491 | 51.88993 | 34866 ft | 517 kts | 109° |
| 2026-05-05 01:10 | 40.37787 | 51.98158 | 34870 ft | 517 kts | 109° |
| 2026-05-05 01:11 | 40.36097 | 52.07189 | 34864 ft | 518 kts | 109° |
| 2026-05-05 01:11 | 40.34373 | 52.16352 | 34866 ft | 518 kts | 109° |
| 2026-05-05 01:12 | 40.32641 | 52.25510 | 34867 ft | 518 kts | 109° |
| 2026-05-05 01:12 | 40.30903 | 52.34660 | 34852 ft | 517 kts | 109° |
| 2026-05-05 01:13 | 40.29159 | 52.43801 | 34867 ft | 517 kts | 109° |
| 2026-05-05 01:13 | 40.27408 | 52.52941 | 34857 ft | 518 kts | 109° |
| 2026-05-05 01:14 | 40.25648 | 52.62087 | 34857 ft | 518 kts | 109° |
| 2026-05-05 01:14 | 40.23888 | 52.71238 | 34832 ft | 519 kts | 109° |
| 2026-05-05 01:15 | 40.22123 | 52.80393 | 34848 ft | 519 kts | 109° |
| 2026-05-05 01:15 | 40.20348 | 52.89556 | 34858 ft | 520 kts | 109° |
| 2026-05-05 01:16 | 40.18561 | 52.98731 | 34851 ft | 521 kts | 109° |
| 2026-05-05 01:16 | 40.16787 | 53.07804 | 34829 ft | 522 kts | 109° |
| 2026-05-05 01:17 | 40.14983 | 53.16989 | 34851 ft | 522 kts | 109° |
| 2026-05-05 01:17 | 40.13170 | 53.26178 | 34848 ft | 522 kts | 109° |
| 2026-05-05 01:18 | 40.11348 | 53.35369 | 34841 ft | 522 kts | 109° |
| 2026-05-05 01:18 | 40.09532 | 53.44486 | 34834 ft | 522 kts | 109° |
| 2026-05-05 01:19 | 40.07700 | 53.53647 | 34821 ft | 521 kts | 109° |
| 2026-05-05 01:19 | 40.05862 | 53.62795 | 34832 ft | 521 kts | 109° |
| 2026-05-05 01:20 | 40.04018 | 53.71930 | 34838 ft | 521 kts | 109° |
| 2026-05-05 01:20 | 40.02166 | 53.81065 | 34825 ft | 521 kts | 109° |
| 2026-05-05 01:21 | 40.00308 | 53.90190 | 34826 ft | 520 kts | 109° |
| 2026-05-05 01:21 | 39.98446 | 53.99295 | 34832 ft | 520 kts | 109° |
| 2026-05-05 01:22 | 39.96918 | 54.06737 | 34829 ft | 520 kts | 109° |
| 2026-05-05 01:22 | 39.95040 | 54.15851 | 34825 ft | 520 kts | 109° |
| 2026-05-05 01:23 | 39.93155 | 54.24952 | 34843 ft | 520 kts | 109° |
| 2026-05-05 01:23 | 39.91263 | 54.34057 | 34834 ft | 521 kts | 109° |
| 2026-05-05 01:24 | 39.89363 | 54.43165 | 34845 ft | 521 kts | 109° |
| 2026-05-05 01:24 | 39.87439 | 54.52264 | 34839 ft | 521 kts | 109° |
| 2026-05-05 01:25 | 39.85490 | 54.61349 | 34849 ft | 521 kts | 109° |
| 2026-05-05 01:25 | 39.83539 | 54.70438 | 34850 ft | 522 kts | 109° |
| 2026-05-05 01:26 | 39.81584 | 54.79536 | 34834 ft | 523 kts | 109° |
| 2026-05-05 01:26 | 39.79640 | 54.88653 | 34842 ft | 523 kts | 109° |
| 2026-05-05 01:27 | 39.77707 | 54.97717 | 34843 ft | 524 kts | 109° |
| 2026-05-05 01:27 | 39.75775 | 55.06723 | 34843 ft | 524 kts | 109° |
| 2026-05-05 01:28 | 39.73807 | 55.15848 | 34820 ft | 524 kts | 109° |
| 2026-05-05 01:28 | 39.71834 | 55.24963 | 34832 ft | 524 kts | 109° |
| 2026-05-05 01:29 | 39.69853 | 55.34082 | 34840 ft | 524 kts | 109° |
| 2026-05-05 01:29 | 39.67857 | 55.43184 | 34833 ft | 524 kts | 109° |
| 2026-05-05 01:30 | 39.65844 | 55.52283 | 34829 ft | 524 kts | 109° |
| 2026-05-05 01:30 | 39.63827 | 55.61375 | 34834 ft | 524 kts | 109° |
| 2026-05-05 01:31 | 39.61807 | 55.70456 | 34835 ft | 524 kts | 109° |
| 2026-05-05 01:31 | 39.59781 | 55.79529 | 34835 ft | 524 kts | 109° |
| 2026-05-05 01:32 | 39.57751 | 55.88584 | 34823 ft | 523 kts | 109° |
| 2026-05-05 01:32 | 39.55737 | 55.97560 | 34832 ft | 522 kts | 109° |
| 2026-05-05 01:33 | 39.53743 | 56.06464 | 34835 ft | 521 kts | 109° |
| 2026-05-05 01:33 | 39.51716 | 56.15478 | 34819 ft | 521 kts | 109° |
| 2026-05-05 01:34 | 39.49683 | 56.24481 | 34827 ft | 521 kts | 109° |
| 2026-05-05 01:34 | 39.47644 | 56.33470 | 34827 ft | 520 kts | 109° |
| 2026-05-05 01:35 | 39.45600 | 56.42444 | 34827 ft | 520 kts | 109° |
| 2026-05-05 01:35 | 39.43547 | 56.51424 | 34824 ft | 520 kts | 109° |
| 2026-05-05 01:36 | 39.41489 | 56.60390 | 34833 ft | 520 kts | 109° |
| 2026-05-05 01:36 | 39.39425 | 56.69350 | 34831 ft | 520 kts | 109° |
| 2026-05-05 01:37 | 39.37356 | 56.78301 | 34826 ft | 520 kts | 109° |
| 2026-05-05 01:37 | 39.35208 | 56.87210 | 34823 ft | 519 kts | 111° |
| 2026-05-05 01:38 | 39.32935 | 56.95982 | 34834 ft | 518 kts | 111° |
| 2026-05-05 01:38 | 39.30664 | 57.04681 | 34827 ft | 518 kts | 111° |
| 2026-05-05 01:39 | 39.28379 | 57.13499 | 34830 ft | 518 kts | 111° |
| 2026-05-05 01:39 | 39.26100 | 57.22315 | 34818 ft | 518 kts | 111° |
| 2026-05-05 01:40 | 39.23817 | 57.31122 | 34832 ft | 517 kts | 111° |
| 2026-05-05 01:40 | 39.21527 | 57.39920 | 34836 ft | 518 kts | 111° |
| 2026-05-05 01:41 | 39.19227 | 57.48717 | 34827 ft | 518 kts | 111° |
| 2026-05-05 01:41 | 39.16920 | 57.57513 | 34825 ft | 518 kts | 111° |
| 2026-05-05 01:42 | 39.14607 | 57.66298 | 34836 ft | 518 kts | 111° |
| 2026-05-05 01:42 | 39.12287 | 57.75082 | 34828 ft | 518 kts | 111° |
| 2026-05-05 01:43 | 39.09959 | 57.83866 | 34816 ft | 518 kts | 111° |
| 2026-05-05 01:43 | 39.07623 | 57.92644 | 34838 ft | 518 kts | 111° |
| 2026-05-05 01:44 | 39.05310 | 58.01311 | 34826 ft | 519 kts | 111° |
| 2026-05-05 01:44 | 39.02960 | 58.10087 | 34827 ft | 519 kts | 111° |
| 2026-05-05 01:45 | 39.00601 | 58.18862 | 34821 ft | 519 kts | 111° |
| 2026-05-05 01:45 | 38.98239 | 58.27620 | 34823 ft | 520 kts | 111° |
| 2026-05-05 01:46 | 38.95865 | 58.36395 | 34830 ft | 520 kts | 111° |
| 2026-05-05 01:46 | 38.93484 | 58.45164 | 34829 ft | 520 kts | 111° |
| 2026-05-05 01:47 | 38.91097 | 58.53928 | 34818 ft | 520 kts | 111° |
| 2026-05-05 01:47 | 38.88686 | 58.62609 | 34827 ft | 519 kts | 114° |
| 2026-05-05 01:48 | 38.85588 | 58.70927 | 34829 ft | 516 kts | 120° |
| 2026-05-05 01:48 | 38.82302 | 58.79111 | 34830 ft | 516 kts | 120° |
| 2026-05-05 01:49 | 38.79042 | 58.87309 | 34828 ft | 516 kts | 119° |
| 2026-05-05 01:49 | 38.75806 | 58.95521 | 34826 ft | 516 kts | 119° |
| 2026-05-05 01:50 | 38.72603 | 59.03642 | 34840 ft | 517 kts | 119° |
| 2026-05-05 01:50 | 38.69353 | 59.11853 | 34817 ft | 517 kts | 119° |
| 2026-05-05 01:51 | 38.66098 | 59.20048 | 34831 ft | 516 kts | 119° |
| 2026-05-05 01:51 | 38.62843 | 59.28227 | 34843 ft | 516 kts | 119° |
| 2026-05-05 01:52 | 38.59347 | 59.36204 | 34848 ft | 513 kts | 127° |
| 2026-05-05 01:52 | 38.54896 | 59.43243 | 34842 ft | 507 kts | 136° |
| 2026-05-05 01:53 | 38.50092 | 59.49834 | 34853 ft | 507 kts | 136° |
| 2026-05-05 01:53 | 38.45297 | 59.56445 | 34851 ft | 508 kts | 136° |
| 2026-05-05 01:54 | 38.40523 | 59.63081 | 34848 ft | 508 kts | 136° |
| 2026-05-05 01:54 | 38.35753 | 59.69718 | 34853 ft | 508 kts | 136° |
| 2026-05-05 01:55 | 38.30977 | 59.76349 | 34853 ft | 508 kts | 136° |
| 2026-05-05 01:55 | 38.26195 | 59.82969 | 34851 ft | 508 kts | 136° |
| 2026-05-05 01:56 | 38.21414 | 59.89574 | 34861 ft | 507 kts | 136° |
| 2026-05-05 01:56 | 38.16623 | 59.96177 | 34855 ft | 508 kts | 136° |
| 2026-05-05 01:57 | 38.11896 | 60.02681 | 34849 ft | 508 kts | 136° |
| 2026-05-05 01:57 | 38.07102 | 60.09263 | 34862 ft | 508 kts | 136° |
| 2026-05-05 01:58 | 38.02305 | 60.15839 | 34860 ft | 508 kts | 136° |
| 2026-05-05 01:58 | 37.97513 | 60.22403 | 34850 ft | 508 kts | 136° |
| 2026-05-05 01:59 | 37.92716 | 60.28988 | 34869 ft | 509 kts | 136° |
| 2026-05-05 01:59 | 37.87942 | 60.35533 | 34860 ft | 509 kts | 136° |
| 2026-05-05 02:00 | 37.83129 | 60.42114 | 34852 ft | 510 kts | 136° |
| 2026-05-05 02:00 | 37.78313 | 60.48685 | 34874 ft | 510 kts | 136° |
| 2026-05-05 02:01 | 37.73473 | 60.55241 | 34866 ft | 510 kts | 137° |
| 2026-05-05 02:01 | 37.68503 | 60.61632 | 34846 ft | 510 kts | 139° |
| 2026-05-05 02:02 | 37.63499 | 60.67963 | 34869 ft | 509 kts | 139° |
| 2026-05-05 02:02 | 37.58511 | 60.74305 | 34871 ft | 509 kts | 138° |
| 2026-05-05 02:03 | 37.53526 | 60.80661 | 34876 ft | 510 kts | 138° |
| 2026-05-05 02:03 | 37.48536 | 60.87018 | 34875 ft | 510 kts | 138° |
| 2026-05-05 02:04 | 37.43544 | 60.93361 | 34886 ft | 510 kts | 138° |
| 2026-05-05 02:04 | 37.38543 | 60.99702 | 34891 ft | 510 kts | 138° |
| 2026-05-05 02:05 | 37.33588 | 61.05971 | 34895 ft | 511 kts | 138° |
| 2026-05-05 02:05 | 37.28572 | 61.12305 | 34896 ft | 512 kts | 138° |
| 2026-05-05 02:06 | 37.23545 | 61.18643 | 34900 ft | 513 kts | 138° |
| 2026-05-05 02:06 | 37.18507 | 61.24978 | 34895 ft | 513 kts | 138° |
| 2026-05-05 02:07 | 37.13460 | 61.31306 | 34901 ft | 513 kts | 138° |
| 2026-05-05 02:07 | 37.08440 | 61.37590 | 34909 ft | 514 kts | 138° |
| 2026-05-05 02:08 | 37.03380 | 61.43915 | 34896 ft | 514 kts | 138° |
| 2026-05-05 02:08 | 36.98320 | 61.50229 | 34903 ft | 515 kts | 138° |
| 2026-05-05 02:09 | 36.93243 | 61.56552 | 34914 ft | 515 kts | 138° |
| 2026-05-05 02:09 | 36.88162 | 61.62865 | 34904 ft | 515 kts | 139° |
| 2026-05-05 02:10 | 36.83072 | 61.69165 | 34913 ft | 514 kts | 139° |
| 2026-05-05 02:10 | 36.77990 | 61.75440 | 34919 ft | 514 kts | 139° |
| 2026-05-05 02:11 | 36.72907 | 61.81706 | 34912 ft | 514 kts | 139° |
| 2026-05-05 02:11 | 36.67825 | 61.87962 | 34924 ft | 513 kts | 139° |
| 2026-05-05 02:12 | 36.60195 | 61.97331 | 34922 ft | 514 kts | 139° |
| 2026-05-05 02:13 | 36.56032 | 62.02431 | 34937 ft | 515 kts | 139° |
| 2026-05-05 02:13 | 36.50922 | 62.08679 | 34941 ft | 516 kts | 139° |
| 2026-05-05 02:14 | 36.45797 | 62.14935 | 34944 ft | 517 kts | 139° |
| 2026-05-05 02:14 | 36.40661 | 62.21192 | 34954 ft | 517 kts | 139° |
| 2026-05-05 02:15 | 36.35517 | 62.27446 | 34953 ft | 518 kts | 139° |
| 2026-05-05 02:15 | 36.30355 | 62.33709 | 34962 ft | 519 kts | 139° |
| 2026-05-05 02:16 | 36.25185 | 62.39971 | 34964 ft | 520 kts | 139° |
| 2026-05-05 02:16 | 36.20006 | 62.46230 | 34959 ft | 520 kts | 139° |
| 2026-05-05 02:17 | 36.14821 | 62.52486 | 34969 ft | 520 kts | 139° |
| 2026-05-05 02:17 | 36.09631 | 62.58734 | 34976 ft | 521 kts | 139° |
| 2026-05-05 02:18 | 36.04429 | 62.64985 | 34966 ft | 522 kts | 139° |
| 2026-05-05 02:18 | 35.99232 | 62.71218 | 34984 ft | 521 kts | 139° |
| 2026-05-05 02:19 | 35.94026 | 62.77451 | 34994 ft | 522 kts | 139° |
| 2026-05-05 02:19 | 35.88810 | 62.83682 | 34986 ft | 522 kts | 139° |
| 2026-05-05 02:20 | 35.83587 | 62.89910 | 34997 ft | 522 kts | 139° |
| 2026-05-05 02:20 | 35.78357 | 62.96134 | 35003 ft | 523 kts | 139° |
| 2026-05-05 02:21 | 35.73194 | 63.02267 | 35004 ft | 523 kts | 139° |
| 2026-05-05 02:21 | 35.67986 | 63.08444 | 35018 ft | 524 kts | 139° |
| 2026-05-05 02:22 | 35.62739 | 63.14655 | 35020 ft | 524 kts | 139° |
| 2026-05-05 02:22 | 35.57582 | 63.20981 | 35010 ft | 525 kts | 133° |
| 2026-05-05 02:23 | 35.53083 | 63.28066 | 35005 ft | 526 kts | 128° |
| 2026-05-05 02:23 | 35.48684 | 63.35245 | 35018 ft | 526 kts | 129° |
| 2026-05-05 02:24 | 35.44241 | 63.42383 | 35024 ft | 527 kts | 129° |
| 2026-05-05 02:24 | 35.39764 | 63.49503 | 35034 ft | 527 kts | 129° |
| 2026-05-05 02:25 | 35.35281 | 63.56621 | 35023 ft | 528 kts | 129° |
| 2026-05-05 02:25 | 35.30794 | 63.63740 | 35041 ft | 528 kts | 129° |
| 2026-05-05 02:26 | 35.26333 | 63.70811 | 35049 ft | 528 kts | 129° |
| 2026-05-05 02:26 | 35.21814 | 63.77978 | 35076 ft | 528 kts | 129° |
| 2026-05-05 02:27 | 35.17325 | 63.85089 | 35073 ft | 529 kts | 129° |
| 2026-05-05 02:27 | 35.12823 | 63.92204 | 35088 ft | 529 kts | 129° |
| 2026-05-05 02:28 | 35.08346 | 63.99263 | 35093 ft | 529 kts | 129° |
| 2026-05-05 02:28 | 35.03857 | 64.06325 | 35097 ft | 529 kts | 129° |
| 2026-05-05 02:29 | 34.99348 | 64.13407 | 35094 ft | 529 kts | 129° |
| 2026-05-05 02:29 | 34.94854 | 64.20450 | 35096 ft | 530 kts | 129° |
| 2026-05-05 02:30 | 34.90321 | 64.27540 | 35104 ft | 530 kts | 129° |
| 2026-05-05 02:30 | 34.85784 | 64.34623 | 35092 ft | 530 kts | 129° |
| 2026-05-05 02:31 | 34.81242 | 64.41698 | 35122 ft | 530 kts | 129° |
| 2026-05-05 02:31 | 34.76697 | 64.48765 | 35125 ft | 531 kts | 129° |
| 2026-05-05 02:32 | 34.72137 | 64.55841 | 35141 ft | 532 kts | 129° |
| 2026-05-05 02:32 | 34.67571 | 64.62913 | 35132 ft | 532 kts | 129° |
| 2026-05-05 02:33 | 34.62997 | 64.69981 | 35149 ft | 532 kts | 129° |
| 2026-05-05 02:33 | 34.58415 | 64.77050 | 35165 ft | 533 kts | 129° |
| 2026-05-05 02:34 | 34.53818 | 64.84129 | 35167 ft | 534 kts | 129° |
| 2026-05-05 02:34 | 34.49210 | 64.91210 | 35160 ft | 535 kts | 130° |
| 2026-05-05 02:35 | 34.44584 | 64.98287 | 35189 ft | 536 kts | 130° |
| 2026-05-05 02:35 | 34.40013 | 65.05261 | 35178 ft | 537 kts | 129° |
| 2026-05-05 02:36 | 34.35363 | 65.12349 | 35169 ft | 538 kts | 129° |
| 2026-05-05 02:36 | 34.30710 | 65.19430 | 35153 ft | 538 kts | 130° |
| 2026-05-05 02:37 | 34.26085 | 65.26455 | 35175 ft | 537 kts | 130° |
| 2026-05-05 02:37 | 34.21424 | 65.33520 | 35164 ft | 537 kts | 130° |
| 2026-05-05 02:38 | 34.16759 | 65.40578 | 35139 ft | 537 kts | 130° |
| 2026-05-05 02:38 | 34.12092 | 65.47625 | 35151 ft | 538 kts | 130° |
| 2026-05-05 02:39 | 34.07418 | 65.54669 | 35136 ft | 538 kts | 130° |
| 2026-05-05 02:39 | 34.02735 | 65.61714 | 35169 ft | 539 kts | 130° |
| 2026-05-05 02:40 | 33.98048 | 65.68755 | 35139 ft | 540 kts | 130° |
| 2026-05-05 02:40 | 33.93342 | 65.75816 | 35116 ft | 540 kts | 130° |
| 2026-05-05 02:41 | 33.88637 | 65.82862 | 35125 ft | 540 kts | 130° |
| 2026-05-05 02:41 | 33.83927 | 65.89899 | 35126 ft | 540 kts | 130° |
| 2026-05-05 02:42 | 33.79218 | 65.96920 | 35112 ft | 539 kts | 130° |
| 2026-05-05 02:42 | 33.74567 | 66.03847 | 35106 ft | 539 kts | 130° |
| 2026-05-05 02:43 | 33.69864 | 66.10836 | 35092 ft | 538 kts | 130° |
| 2026-05-05 02:43 | 33.65165 | 66.17805 | 35095 ft | 536 kts | 130° |
| 2026-05-05 02:44 | 33.60459 | 66.24768 | 35077 ft | 538 kts | 130° |
| 2026-05-05 02:44 | 33.55740 | 66.31741 | 35086 ft | 539 kts | 130° |
| 2026-05-05 02:45 | 33.51010 | 66.38717 | 35073 ft | 539 kts | 130° |
| 2026-05-05 02:45 | 33.46279 | 66.45682 | 35071 ft | 539 kts | 130° |
| 2026-05-05 02:46 | 33.41537 | 66.52621 | 35090 ft | 538 kts | 130° |
| 2026-05-05 02:46 | 33.36780 | 66.59554 | 35108 ft | 540 kts | 130° |
| 2026-05-05 02:47 | 33.32005 | 66.66506 | 35104 ft | 541 kts | 130° |
| 2026-05-05 02:47 | 33.27220 | 66.73464 | 35097 ft | 542 kts | 130° |
| 2026-05-05 02:48 | 33.22466 | 66.80363 | 35101 ft | 542 kts | 130° |
| 2026-05-05 02:48 | 33.17675 | 66.87306 | 35123 ft | 542 kts | 130° |
| 2026-05-05 02:49 | 33.12871 | 66.94249 | 35118 ft | 543 kts | 130° |
| 2026-05-05 02:49 | 33.08125 | 67.01101 | 35106 ft | 543 kts | 130° |
| 2026-05-05 02:50 | 33.03307 | 67.08042 | 35088 ft | 543 kts | 130° |
| 2026-05-05 02:50 | 32.98490 | 67.14967 | 35094 ft | 543 kts | 131° |
| 2026-05-05 02:51 | 32.93671 | 67.21880 | 35116 ft | 543 kts | 131° |
| 2026-05-05 02:51 | 32.88834 | 67.28809 | 35075 ft | 545 kts | 130° |
| 2026-05-05 02:52 | 32.83986 | 67.35742 | 35064 ft | 545 kts | 131° |
| 2026-05-05 02:52 | 32.79131 | 67.42674 | 35055 ft | 545 kts | 131° |
| 2026-05-05 02:53 | 32.74222 | 67.49531 | 35072 ft | 544 kts | 133° |
| 2026-05-05 02:53 | 32.69192 | 67.56238 | 35085 ft | 544 kts | 133° |
| 2026-05-05 02:54 | 32.64160 | 67.62936 | 35048 ft | 543 kts | 133° |
| 2026-05-05 02:54 | 32.59156 | 67.69642 | 35070 ft | 543 kts | 133° |
| 2026-05-05 02:55 | 32.54158 | 67.76342 | 35069 ft | 542 kts | 133° |
| 2026-05-05 02:55 | 32.49163 | 67.83034 | 35063 ft | 542 kts | 132° |
| 2026-05-05 02:56 | 32.44331 | 67.89897 | 35041 ft | 543 kts | 130° |
| 2026-05-05 02:56 | 32.39574 | 67.96843 | 35057 ft | 543 kts | 130° |
| 2026-05-05 02:57 | 32.34856 | 68.03669 | 35068 ft | 545 kts | 130° |
| 2026-05-05 02:57 | 32.30056 | 68.10543 | 35065 ft | 546 kts | 131° |
| 2026-05-05 02:58 | 32.25203 | 68.17461 | 35043 ft | 547 kts | 131° |
| 2026-05-05 02:58 | 32.20340 | 68.24386 | 35067 ft | 548 kts | 131° |
| 2026-05-05 02:59 | 32.15469 | 68.31315 | 35066 ft | 548 kts | 131° |
| 2026-05-05 02:59 | 32.10594 | 68.38236 | 35078 ft | 549 kts | 131° |
| 2026-05-05 03:00 | 32.05713 | 68.45154 | 35076 ft | 548 kts | 131° |
| 2026-05-05 03:00 | 32.00833 | 68.52056 | 35086 ft | 548 kts | 131° |
| 2026-05-05 03:01 | 31.95959 | 68.58939 | 35092 ft | 547 kts | 131° |
| 2026-05-05 03:01 | 31.91084 | 68.65811 | 35086 ft | 546 kts | 131° |
| 2026-05-05 03:02 | 31.86215 | 68.72661 | 35084 ft | 545 kts | 131° |
| 2026-05-05 03:02 | 31.82173 | 68.78338 | 35074 ft | 544 kts | 131° |
| 2026-05-05 03:03 | 31.77308 | 68.85161 | 35085 ft | 544 kts | 131° |
| 2026-05-05 03:03 | 31.72443 | 68.91971 | 35086 ft | 544 kts | 131° |
| 2026-05-05 03:04 | 31.67577 | 68.98774 | 35073 ft | 544 kts | 131° |
| 2026-05-05 03:04 | 31.62870 | 69.05541 | 35056 ft | 543 kts | 129° |
| 2026-05-05 03:05 | 31.58213 | 69.12537 | 35075 ft | 545 kts | 129° |
| 2026-05-05 03:05 | 31.53528 | 69.19545 | 35086 ft | 547 kts | 129° |
| 2026-05-05 03:06 | 31.48808 | 69.26533 | 35054 ft | 547 kts | 129° |
| 2026-05-05 03:06 | 31.44081 | 69.33506 | 35051 ft | 545 kts | 129° |
| 2026-05-05 03:07 | 31.39367 | 69.40454 | 35040 ft | 545 kts | 129° |
| 2026-05-05 03:07 | 31.34392 | 69.47114 | 35050 ft | 543 kts | 138° |
| 2026-05-05 03:08 | 31.28632 | 69.52774 | 35059 ft | 540 kts | 144° |
| 2026-05-05 03:08 | 31.22740 | 69.58235 | 35051 ft | 541 kts | 144° |
| 2026-05-05 03:09 | 31.16863 | 69.63737 | 35048 ft | 541 kts | 144° |
| 2026-05-05 03:09 | 31.11011 | 69.69263 | 35050 ft | 541 kts | 143° |
| 2026-05-05 03:10 | 31.05158 | 69.74792 | 35052 ft | 542 kts | 144° |
| 2026-05-05 03:10 | 30.99299 | 69.80314 | 35049 ft | 543 kts | 144° |
| 2026-05-05 03:11 | 30.93423 | 69.85839 | 35032 ft | 542 kts | 144° |
| 2026-05-05 03:11 | 30.87552 | 69.91349 | 35031 ft | 542 kts | 144° |
| 2026-05-05 03:12 | 30.81682 | 69.96849 | 35024 ft | 541 kts | 144° |
| 2026-05-05 03:12 | 30.75932 | 70.02229 | 35007 ft | 541 kts | 144° |
| 2026-05-05 03:13 | 30.70065 | 70.07709 | 34993 ft | 541 kts | 144° |
| 2026-05-05 03:13 | 30.64199 | 70.13179 | 35003 ft | 540 kts | 144° |
| 2026-05-05 03:14 | 30.58331 | 70.18642 | 35006 ft | 541 kts | 144° |
| 2026-05-05 03:14 | 30.52431 | 70.24126 | 34960 ft | 545 kts | 144° |
| 2026-05-05 03:15 | 30.46508 | 70.29624 | 34968 ft | 546 kts | 144° |
| 2026-05-05 03:15 | 30.40572 | 70.35126 | 34959 ft | 547 kts | 144° |
| 2026-05-05 03:16 | 30.34628 | 70.40625 | 34957 ft | 547 kts | 144° |
| 2026-05-05 03:16 | 30.28671 | 70.46129 | 34933 ft | 548 kts | 144° |
| 2026-05-05 03:17 | 30.22714 | 70.51625 | 34926 ft | 548 kts | 144° |
| 2026-05-05 03:17 | 30.16785 | 70.57170 | 34941 ft | 549 kts | 143° |
| 2026-05-05 03:18 | 30.10890 | 70.62773 | 34921 ft | 549 kts | 143° |
| 2026-05-05 03:18 | 30.04989 | 70.68368 | 34889 ft | 548 kts | 143° |
| 2026-05-05 03:19 | 29.96135 | 70.76714 | 34921 ft | 548 kts | 143° |
| 2026-05-05 03:19 | 29.90223 | 70.82272 | 34919 ft | 549 kts | 143° |
| 2026-05-05 03:20 | 29.84303 | 70.87830 | 34901 ft | 549 kts | 143° |
| 2026-05-05 03:20 | 29.78378 | 70.93386 | 34905 ft | 549 kts | 143° |
| 2026-05-05 03:21 | 29.72446 | 70.98941 | 34901 ft | 549 kts | 143° |
| 2026-05-05 03:21 | 29.66590 | 71.04432 | 34902 ft | 550 kts | 142° |
| 2026-05-05 03:22 | 29.60848 | 71.10244 | 34908 ft | 550 kts | 140° |
| 2026-05-05 03:22 | 29.55184 | 71.16154 | 34900 ft | 550 kts | 140° |
| 2026-05-05 03:23 | 29.49519 | 71.21977 | 34898 ft | 550 kts | 141° |
| 2026-05-05 03:23 | 29.43787 | 71.27804 | 34893 ft | 551 kts | 141° |
| 2026-05-05 03:24 | 29.38050 | 71.33624 | 34895 ft | 551 kts | 141° |
| 2026-05-05 03:24 | 29.32310 | 71.39450 | 34876 ft | 551 kts | 141° |
| 2026-05-05 03:25 | 29.26572 | 71.45276 | 34884 ft | 551 kts | 141° |
| 2026-05-05 03:25 | 29.20848 | 71.51130 | 34893 ft | 552 kts | 140° |
| 2026-05-05 03:26 | 29.15122 | 71.56991 | 34899 ft | 552 kts | 140° |
| 2026-05-05 03:26 | 29.09391 | 71.62842 | 34860 ft | 552 kts | 140° |
| 2026-05-05 03:27 | 29.03661 | 71.68677 | 34881 ft | 551 kts | 141° |
| 2026-05-05 03:27 | 28.97937 | 71.74496 | 34880 ft | 551 kts | 141° |
| 2026-05-05 03:28 | 28.92209 | 71.80311 | 34878 ft | 551 kts | 141° |
| 2026-05-05 03:28 | 28.86480 | 71.86118 | 34877 ft | 550 kts | 141° |
| 2026-05-05 03:29 | 28.80794 | 71.91872 | 34877 ft | 550 kts | 141° |
| 2026-05-05 03:29 | 28.75070 | 71.97658 | 34877 ft | 550 kts | 141° |
| 2026-05-05 03:30 | 28.69421 | 72.03358 | 34876 ft | 550 kts | 141° |
| 2026-05-05 03:30 | 28.63691 | 72.09131 | 34873 ft | 550 kts | 141° |
| 2026-05-05 03:31 | 28.57964 | 72.14895 | 34859 ft | 550 kts | 141° |
| 2026-05-05 03:31 | 28.52270 | 72.20700 | 34859 ft | 550 kts | 135° |
| 2026-05-05 03:32 | 28.49878 | 72.24087 | 34859 ft | 551 kts | 122° |
| 2026-05-05 03:32 | 28.48057 | 72.27916 | 34870 ft | 551 kts | 112° |
| 2026-05-05 03:32 | 28.46809 | 72.32022 | 34874 ft | 548 kts | 99° |
| 2026-05-05 03:32 | 28.46149 | 72.36263 | 34884 ft | 545 kts | 96° |
| 2026-05-05 03:33 | 28.45003 | 72.44793 | 34869 ft | 547 kts | 96° |
| 2026-05-05 03:33 | 28.43795 | 72.53357 | 34873 ft | 550 kts | 96° |
| 2026-05-05 03:34 | 28.42506 | 72.61933 | 34893 ft | 551 kts | 97° |
| 2026-05-05 03:34 | 28.41184 | 72.70516 | 34854 ft | 552 kts | 97° |
| 2026-05-05 03:35 | 28.39862 | 72.79085 | 34864 ft | 550 kts | 97° |
| 2026-05-05 03:35 | 28.38543 | 72.87635 | 34875 ft | 549 kts | 97° |
| 2026-05-05 03:36 | 28.37225 | 72.96167 | 34892 ft | 548 kts | 97° |
| 2026-05-05 03:36 | 28.35919 | 73.04579 | 34874 ft | 548 kts | 97° |
| 2026-05-05 03:37 | 28.34592 | 73.13090 | 34876 ft | 547 kts | 97° |
| 2026-05-05 03:37 | 28.33260 | 73.21588 | 34882 ft | 547 kts | 97° |
| 2026-05-05 03:38 | 28.31934 | 73.30021 | 34879 ft | 546 kts | 97° |
| 2026-05-05 03:38 | 28.30592 | 73.38513 | 34887 ft | 546 kts | 98° |
| 2026-05-05 03:39 | 28.29247 | 73.46994 | 34894 ft | 546 kts | 98° |
| 2026-05-05 03:39 | 28.27895 | 73.55482 | 34896 ft | 547 kts | 98° |
| 2026-05-05 03:40 | 28.26539 | 73.63966 | 34894 ft | 547 kts | 98° |
| 2026-05-05 03:40 | 28.25177 | 73.72445 | 34885 ft | 546 kts | 98° |
| 2026-05-05 03:41 | 28.23810 | 73.80920 | 34893 ft | 546 kts | 98° |
| 2026-05-05 03:41 | 28.22440 | 73.89384 | 34904 ft | 546 kts | 98° |
| 2026-05-05 03:42 | 28.21065 | 73.97850 | 34901 ft | 546 kts | 98° |
| 2026-05-05 03:42 | 28.19716 | 74.06182 | 34911 ft | 546 kts | 97° |
| 2026-05-05 03:43 | 28.19126 | 74.14716 | 34918 ft | 541 kts | 86° |
| 2026-05-05 03:43 | 28.19648 | 74.23182 | 34916 ft | 537 kts | 81° |
| 2026-05-05 03:44 | 28.20317 | 74.31620 | 34907 ft | 538 kts | 81° |
| 2026-05-05 03:44 | 28.20944 | 74.40067 | 34924 ft | 538 kts | 82° |
| 2026-05-05 03:45 | 28.21533 | 74.48518 | 34915 ft | 538 kts | 82° |
| 2026-05-05 03:45 | 28.22107 | 74.56974 | 34914 ft | 538 kts | 82° |
| 2026-05-05 03:46 | 28.22678 | 74.65422 | 34914 ft | 537 kts | 82° |
| 2026-05-05 03:46 | 28.23243 | 74.73813 | 34918 ft | 537 kts | 82° |
| 2026-05-05 03:47 | 28.23810 | 74.82309 | 34914 ft | 537 kts | 82° |
| 2026-05-05 03:47 | 28.24365 | 74.90691 | 34913 ft | 537 kts | 82° |
| 2026-05-05 03:48 | 28.24917 | 74.99129 | 34918 ft | 537 kts | 82° |
| 2026-05-05 03:48 | 28.25456 | 75.07444 | 34927 ft | 536 kts | 83° |
| 2026-05-05 03:49 | 28.25999 | 75.15884 | 34917 ft | 537 kts | 83° |
| 2026-05-05 03:49 | 28.26536 | 75.24328 | 34911 ft | 536 kts | 83° |
| 2026-05-05 03:50 | 28.27067 | 75.32763 | 34912 ft | 536 kts | 83° |
| 2026-05-05 03:50 | 28.27594 | 75.41201 | 34910 ft | 536 kts | 83° |
| 2026-05-05 03:51 | 28.28115 | 75.49633 | 34917 ft | 536 kts | 83° |
| 2026-05-05 03:51 | 28.28544 | 75.56641 | 34909 ft | 536 kts | 83° |
| 2026-05-05 03:52 | 28.29055 | 75.65071 | 34914 ft | 535 kts | 83° |
| 2026-05-05 03:52 | 28.29560 | 75.73501 | 34911 ft | 535 kts | 83° |
| 2026-05-05 03:53 | 28.30061 | 75.81924 | 34922 ft | 535 kts | 84° |
| 2026-05-05 03:53 | 28.30557 | 75.90353 | 34912 ft | 535 kts | 84° |
| 2026-05-05 03:54 | 28.31047 | 75.98782 | 34912 ft | 535 kts | 84° |
| 2026-05-05 03:54 | 28.31524 | 76.07086 | 34915 ft | 535 kts | 84° |
| 2026-05-05 03:55 | 28.32004 | 76.15519 | 34914 ft | 535 kts | 84° |
| 2026-05-05 03:55 | 28.32479 | 76.23946 | 34918 ft | 535 kts | 84° |
| 2026-05-05 03:56 | 28.32948 | 76.32372 | 34910 ft | 535 kts | 84° |
| 2026-05-05 03:56 | 28.33412 | 76.40793 | 34906 ft | 534 kts | 84° |
| 2026-05-05 03:57 | 28.33870 | 76.49209 | 34906 ft | 534 kts | 84° |
| 2026-05-05 03:57 | 28.34323 | 76.57617 | 34915 ft | 534 kts | 85° |
| 2026-05-05 03:58 | 28.34135 | 76.66037 | 34914 ft | 535 kts | 98° |
| 2026-05-05 03:58 | 28.32389 | 76.74217 | 34909 ft | 534 kts | 111° |
| 2026-05-05 03:59 | 28.29698 | 76.82059 | 34893 ft | 534 kts | 112° |
| 2026-05-05 03:59 | 28.26956 | 76.89894 | 34909 ft | 535 kts | 112° |
| 2026-05-05 04:00 | 28.24255 | 76.97768 | 34916 ft | 536 kts | 112° |
| 2026-05-05 04:00 | 28.21604 | 77.05583 | 34914 ft | 538 kts | 112° |
| 2026-05-05 04:01 | 28.18936 | 77.13449 | 34907 ft | 538 kts | 112° |
| 2026-05-05 04:01 | 28.16224 | 77.21416 | 34906 ft | 538 kts | 112° |
| 2026-05-05 04:02 | 28.13524 | 77.29320 | 34903 ft | 537 kts | 112° |
| 2026-05-05 04:02 | 28.10827 | 77.37198 | 34891 ft | 535 kts | 113° |
| 2026-05-05 04:03 | 28.08153 | 77.44991 | 34851 ft | 533 kts | 112° |
| 2026-05-05 04:03 | 28.05467 | 77.52803 | 34888 ft | 532 kts | 112° |
| 2026-05-05 04:04 | 28.02780 | 77.60602 | 34897 ft | 532 kts | 113° |
| 2026-05-05 04:04 | 28.00088 | 77.68399 | 34912 ft | 532 kts | 113° |
| 2026-05-05 04:05 | 27.97392 | 77.76188 | 34888 ft | 532 kts | 113° |
| 2026-05-05 04:05 | 27.94691 | 77.83979 | 34904 ft | 532 kts | 113° |
| 2026-05-05 04:06 | 27.91983 | 77.91772 | 34898 ft | 532 kts | 113° |
| 2026-05-05 04:06 | 27.89274 | 77.99553 | 34913 ft | 532 kts | 114° |
| 2026-05-05 04:07 | 27.86596 | 78.07230 | 34900 ft | 531 kts | 114° |
| 2026-05-05 04:07 | 27.83886 | 78.14982 | 34905 ft | 530 kts | 114° |
| 2026-05-05 04:08 | 27.81124 | 78.22709 | 35005 ft | 533 kts | 115° |
| 2026-05-05 04:08 | 27.79679 | 78.26565 | 35282 ft | 533 kts | 115° |
| 2026-05-05 04:08 | 27.78223 | 78.30408 | 35615 ft | 532 kts | 115° |
| 2026-05-05 04:09 | 27.76768 | 78.34239 | 35946 ft | 531 kts | 115° |
| 2026-05-05 04:09 | 27.75317 | 78.38069 | 36252 ft | 530 kts | 115° |
| 2026-05-05 04:09 | 27.73872 | 78.41897 | 36521 ft | 531 kts | 115° |
| 2026-05-05 04:09 | 27.72425 | 78.45737 | 36764 ft | 532 kts | 115° |
| 2026-05-05 04:10 | 27.69523 | 78.53450 | 36890 ft | 535 kts | 115° |
| 2026-05-05 04:10 | 27.66618 | 78.61163 | 36897 ft | 532 kts | 115° |
| 2026-05-05 04:11 | 27.63725 | 78.68825 | 36914 ft | 530 kts | 115° |
| 2026-05-05 04:11 | 27.60840 | 78.76447 | 36885 ft | 527 kts | 115° |
| 2026-05-05 04:12 | 27.57959 | 78.84041 | 36911 ft | 527 kts | 115° |
| 2026-05-05 04:12 | 27.55074 | 78.91630 | 36921 ft | 527 kts | 115° |
| 2026-05-05 04:13 | 27.52195 | 78.99189 | 36929 ft | 529 kts | 115° |
| 2026-05-05 04:13 | 27.49317 | 79.06733 | 36923 ft | 531 kts | 116° |
| 2026-05-05 04:14 | 27.46400 | 79.14364 | 36935 ft | 531 kts | 116° |
| 2026-05-05 04:14 | 27.43480 | 79.21988 | 36934 ft | 530 kts | 116° |
| 2026-05-05 04:15 | 27.40565 | 79.29584 | 36939 ft | 528 kts | 116° |
| 2026-05-05 04:15 | 27.37652 | 79.37161 | 36942 ft | 527 kts | 116° |
| 2026-05-05 04:16 | 27.34745 | 79.44711 | 36962 ft | 525 kts | 116° |
| 2026-05-05 04:16 | 27.31818 | 79.52233 | 36945 ft | 525 kts | 117° |
| 2026-05-05 04:17 | 27.28812 | 79.59707 | 36954 ft | 524 kts | 117° |
| 2026-05-05 04:17 | 27.25792 | 79.67170 | 36950 ft | 524 kts | 117° |
| 2026-05-05 04:18 | 27.22779 | 79.74633 | 36947 ft | 525 kts | 117° |
| 2026-05-05 04:18 | 27.19770 | 79.82100 | 36976 ft | 525 kts | 117° |
| 2026-05-05 04:19 | 27.16761 | 79.89554 | 36949 ft | 523 kts | 117° |
| 2026-05-05 04:19 | 27.13761 | 79.96972 | 36949 ft | 521 kts | 118° |
| 2026-05-05 04:20 | 27.10800 | 80.04273 | 36913 ft | 519 kts | 117° |
| 2026-05-05 04:20 | 27.07800 | 80.11658 | 36958 ft | 521 kts | 118° |
| 2026-05-05 04:21 | 27.04782 | 80.19074 | 36977 ft | 525 kts | 118° |
| 2026-05-05 04:21 | 27.01736 | 80.26546 | 36972 ft | 528 kts | 118° |
| 2026-05-05 04:22 | 26.98689 | 80.34008 | 36965 ft | 531 kts | 118° |
| 2026-05-05 04:22 | 26.95604 | 80.41549 | 36962 ft | 533 kts | 118° |
| 2026-05-05 04:23 | 26.92509 | 80.49103 | 36959 ft | 533 kts | 118° |
| 2026-05-05 04:23 | 26.89415 | 80.56641 | 36957 ft | 532 kts | 118° |
| 2026-05-05 04:24 | 26.86321 | 80.64162 | 36952 ft | 531 kts | 118° |
| 2026-05-05 04:25 | 26.81687 | 80.75401 | 36954 ft | 530 kts | 118° |
| 2026-05-05 04:25 | 26.78596 | 80.82885 | 36970 ft | 529 kts | 118° |
| 2026-05-05 04:26 | 26.75612 | 80.90425 | 36969 ft | 532 kts | 113° |
| 2026-05-05 04:26 | 26.73428 | 80.98371 | 36967 ft | 536 kts | 109° |
| 2026-05-05 04:27 | 26.71420 | 81.06307 | 36967 ft | 537 kts | 109° |
| 2026-05-05 04:27 | 26.69356 | 81.14334 | 36970 ft | 537 kts | 109° |
| 2026-05-05 04:28 | 26.67251 | 81.22349 | 36969 ft | 537 kts | 109° |
| 2026-05-05 04:28 | 26.65142 | 81.30310 | 36952 ft | 537 kts | 109° |
| 2026-05-05 04:29 | 26.63020 | 81.38306 | 36971 ft | 537 kts | 109° |
| 2026-05-05 04:29 | 26.60895 | 81.46301 | 36942 ft | 536 kts | 109° |
| 2026-05-05 04:30 | 26.58774 | 81.54270 | 36970 ft | 535 kts | 110° |
| 2026-05-05 04:30 | 26.56649 | 81.62230 | 36984 ft | 534 kts | 110° |
| 2026-05-05 04:31 | 26.54524 | 81.70173 | 36979 ft | 533 kts | 110° |
| 2026-05-05 04:31 | 26.52397 | 81.78103 | 36985 ft | 533 kts | 110° |
| 2026-05-05 04:32 | 26.50267 | 81.86025 | 36979 ft | 532 kts | 110° |
| 2026-05-05 04:32 | 26.48135 | 81.93937 | 36981 ft | 532 kts | 110° |
| 2026-05-05 04:33 | 26.46030 | 82.01726 | 36985 ft | 532 kts | 110° |
| 2026-05-05 04:33 | 26.43889 | 82.09631 | 36973 ft | 532 kts | 110° |
| 2026-05-05 04:34 | 26.41744 | 82.17532 | 36977 ft | 532 kts | 110° |
| 2026-05-05 04:34 | 26.39596 | 82.25427 | 36976 ft | 532 kts | 110° |
| 2026-05-05 04:35 | 26.37444 | 82.33316 | 36975 ft | 532 kts | 110° |
| 2026-05-05 04:35 | 26.35301 | 82.41153 | 36958 ft | 531 kts | 110° |
| 2026-05-05 04:36 | 26.33130 | 82.49077 | 36976 ft | 531 kts | 110° |
| 2026-05-05 04:36 | 26.30982 | 82.56894 | 36974 ft | 531 kts | 110° |
| 2026-05-05 04:37 | 26.28817 | 82.64758 | 36976 ft | 531 kts | 110° |
| 2026-05-05 04:37 | 26.26645 | 82.72626 | 36973 ft | 531 kts | 110° |
| 2026-05-05 04:38 | 26.24469 | 82.80492 | 36970 ft | 531 kts | 111° |
| 2026-05-05 04:38 | 26.22289 | 82.88354 | 36972 ft | 531 kts | 111° |
| 2026-05-05 04:39 | 26.20103 | 82.96217 | 36990 ft | 532 kts | 111° |
| 2026-05-05 04:39 | 26.17937 | 83.03991 | 36971 ft | 532 kts | 111° |
| 2026-05-05 04:40 | 26.15743 | 83.11849 | 36970 ft | 532 kts | 111° |
| 2026-05-05 04:40 | 26.13544 | 83.19707 | 36962 ft | 532 kts | 111° |
| 2026-05-05 04:41 | 26.11713 | 83.26236 | 36965 ft | 532 kts | 111° |
| 2026-05-05 04:41 | 26.09508 | 83.34081 | 36949 ft | 531 kts | 111° |
| 2026-05-05 04:42 | 26.07300 | 83.41921 | 36961 ft | 531 kts | 111° |
| 2026-05-05 04:42 | 26.05090 | 83.49749 | 36960 ft | 531 kts | 111° |
| 2026-05-05 04:43 | 26.02875 | 83.57580 | 36959 ft | 531 kts | 111° |
| 2026-05-05 04:43 | 26.00658 | 83.65409 | 36957 ft | 531 kts | 111° |
| 2026-05-05 04:44 | 25.98443 | 83.73226 | 36955 ft | 531 kts | 111° |
| 2026-05-05 04:44 | 25.96223 | 83.81049 | 36951 ft | 531 kts | 111° |
| 2026-05-05 04:45 | 25.93999 | 83.88867 | 36949 ft | 531 kts | 112° |
| 2026-05-05 04:45 | 25.91770 | 83.96686 | 36948 ft | 531 kts | 112° |
| 2026-05-05 04:46 | 25.89566 | 84.04397 | 36954 ft | 531 kts | 112° |
| 2026-05-05 04:46 | 25.87329 | 84.12207 | 36952 ft | 531 kts | 112° |
| 2026-05-05 04:47 | 25.85086 | 84.20017 | 36946 ft | 531 kts | 112° |
| 2026-05-05 04:47 | 25.82840 | 84.27823 | 36928 ft | 531 kts | 112° |
| 2026-05-05 04:48 | 25.80591 | 84.35624 | 36938 ft | 531 kts | 112° |
| 2026-05-05 04:48 | 25.78333 | 84.43434 | 36952 ft | 532 kts | 112° |
| 2026-05-05 04:49 | 25.76070 | 84.51246 | 36956 ft | 533 kts | 112° |
| 2026-05-05 04:49 | 25.73798 | 84.59074 | 36952 ft | 533 kts | 112° |
| 2026-05-05 04:50 | 25.71519 | 84.66906 | 36952 ft | 534 kts | 112° |
| 2026-05-05 04:50 | 25.69234 | 84.74743 | 36957 ft | 534 kts | 112° |
| 2026-05-05 04:51 | 25.66945 | 84.82577 | 36958 ft | 534 kts | 112° |
| 2026-05-05 04:51 | 25.64651 | 84.90411 | 36963 ft | 534 kts | 112° |
| 2026-05-05 04:52 | 25.62354 | 84.98240 | 36962 ft | 534 kts | 112° |
| 2026-05-05 04:52 | 25.60093 | 85.05929 | 36957 ft | 534 kts | 112° |
| 2026-05-05 04:53 | 25.58184 | 85.13893 | 36972 ft | 537 kts | 105° |
| 2026-05-05 04:53 | 25.56806 | 85.22023 | 36967 ft | 537 kts | 104° |
| 2026-05-05 04:54 | 25.55449 | 85.30155 | 36960 ft | 536 kts | 104° |
| 2026-05-05 04:54 | 25.54049 | 85.38264 | 36940 ft | 536 kts | 104° |
| 2026-05-05 04:55 | 25.52622 | 85.46358 | 36940 ft | 536 kts | 104° |
| 2026-05-05 04:55 | 25.51189 | 85.54447 | 36945 ft | 535 kts | 104° |
| 2026-05-05 04:56 | 25.49755 | 85.62534 | 36945 ft | 535 kts | 104° |
| 2026-05-05 04:56 | 25.48319 | 85.70619 | 36943 ft | 536 kts | 105° |
| 2026-05-05 04:57 | 25.46877 | 85.78711 | 36938 ft | 536 kts | 105° |
| 2026-05-05 04:57 | 25.45431 | 85.86792 | 36940 ft | 536 kts | 105° |
| 2026-05-05 04:58 | 25.43981 | 85.94874 | 36943 ft | 536 kts | 105° |
| 2026-05-05 04:58 | 25.42544 | 86.02851 | 36940 ft | 536 kts | 105° |
| 2026-05-05 04:59 | 25.41084 | 86.10937 | 36935 ft | 536 kts | 105° |
| 2026-05-05 04:59 | 25.39619 | 86.19018 | 36922 ft | 536 kts | 105° |
| 2026-05-05 05:00 | 25.38152 | 86.27092 | 36930 ft | 535 kts | 105° |
| 2026-05-05 05:00 | 25.36683 | 86.35152 | 36936 ft | 535 kts | 105° |
| 2026-05-05 05:01 | 25.35063 | 86.43096 | 36942 ft | 531 kts | 111° |
| 2026-05-05 05:01 | 25.32403 | 86.50635 | 36940 ft | 524 kts | 120° |
| 2026-05-05 05:02 | 25.29310 | 86.57915 | 36930 ft | 523 kts | 120° |
| 2026-05-05 05:02 | 25.26228 | 86.65199 | 36939 ft | 524 kts | 120° |
| 2026-05-05 05:03 | 25.23176 | 86.72509 | 36935 ft | 524 kts | 120° |
| 2026-05-05 05:03 | 25.20134 | 86.79826 | 36937 ft | 524 kts | 120° |
| 2026-05-05 05:04 | 25.17089 | 86.87137 | 36939 ft | 524 kts | 120° |
| 2026-05-05 05:04 | 25.14035 | 86.94450 | 36937 ft | 525 kts | 120° |
| 2026-05-05 05:05 | 25.11014 | 87.01666 | 36939 ft | 525 kts | 120° |
| 2026-05-05 05:05 | 25.07951 | 87.08974 | 36937 ft | 525 kts | 120° |
| 2026-05-05 05:06 | 25.04884 | 87.16277 | 36942 ft | 525 kts | 120° |
| 2026-05-05 05:06 | 25.01811 | 87.23582 | 36934 ft | 525 kts | 120° |
| 2026-05-05 05:07 | 24.98738 | 87.30876 | 36923 ft | 525 kts | 120° |
| 2026-05-05 05:07 | 24.95662 | 87.38168 | 36934 ft | 524 kts | 120° |
| 2026-05-05 05:08 | 24.92583 | 87.45453 | 36937 ft | 524 kts | 120° |
| 2026-05-05 05:08 | 24.89503 | 87.52727 | 36933 ft | 524 kts | 120° |
| 2026-05-05 05:09 | 24.86420 | 87.59998 | 36951 ft | 524 kts | 120° |
| 2026-05-05 05:09 | 24.83334 | 87.67265 | 36947 ft | 524 kts | 120° |
| 2026-05-05 05:10 | 24.80244 | 87.74529 | 36933 ft | 524 kts | 120° |
| 2026-05-05 05:10 | 24.77160 | 87.81787 | 36940 ft | 523 kts | 120° |
| 2026-05-05 05:11 | 24.74158 | 87.89087 | 36942 ft | 524 kts | 119° |
| 2026-05-05 05:11 | 24.71170 | 87.96387 | 36943 ft | 523 kts | 119° |
| 2026-05-05 05:12 | 24.68218 | 88.03541 | 36921 ft | 523 kts | 119° |
| 2026-05-05 05:12 | 24.65193 | 88.10800 | 36930 ft | 522 kts | 119° |
| 2026-05-05 05:13 | 24.62160 | 88.18043 | 36942 ft | 521 kts | 119° |
| 2026-05-05 05:13 | 24.59128 | 88.25281 | 36941 ft | 521 kts | 119° |
| 2026-05-05 05:14 | 24.56098 | 88.32510 | 36942 ft | 521 kts | 119° |
| 2026-05-05 05:14 | 24.53062 | 88.39741 | 36939 ft | 521 kts | 119° |
| 2026-05-05 05:15 | 24.50022 | 88.46972 | 36938 ft | 521 kts | 120° |
| 2026-05-05 05:15 | 24.46983 | 88.54190 | 36936 ft | 521 kts | 119° |
| 2026-05-05 05:16 | 24.44094 | 88.61501 | 36938 ft | 525 kts | 114° |
| 2026-05-05 05:16 | 24.42214 | 88.69274 | 36940 ft | 529 kts | 105° |
| 2026-05-05 05:17 | 24.40704 | 88.77179 | 36931 ft | 530 kts | 105° |
| 2026-05-05 05:17 | 24.39173 | 88.85086 | 36932 ft | 530 kts | 105° |
| 2026-05-05 05:18 | 24.37598 | 88.92979 | 36920 ft | 529 kts | 105° |
| 2026-05-05 05:18 | 24.36028 | 89.00740 | 36931 ft | 529 kts | 105° |
| 2026-05-05 05:19 | 24.34433 | 89.08608 | 36930 ft | 528 kts | 105° |
| 2026-05-05 05:19 | 24.32836 | 89.16472 | 36932 ft | 528 kts | 105° |
| 2026-05-05 05:20 | 24.31239 | 89.24326 | 36925 ft | 528 kts | 105° |
| 2026-05-05 05:20 | 24.29637 | 89.32176 | 36928 ft | 527 kts | 105° |
| 2026-05-05 05:21 | 24.28034 | 89.40016 | 36928 ft | 527 kts | 105° |
| 2026-05-05 05:21 | 24.26425 | 89.47859 | 36930 ft | 527 kts | 106° |
| 2026-05-05 05:22 | 24.24813 | 89.55699 | 36929 ft | 527 kts | 106° |
| 2026-05-05 05:22 | 24.23196 | 89.63537 | 36930 ft | 528 kts | 106° |
| 2026-05-05 05:23 | 24.21574 | 89.71381 | 36926 ft | 528 kts | 106° |
| 2026-05-05 05:23 | 24.19948 | 89.79220 | 36927 ft | 528 kts | 106° |
| 2026-05-05 05:24 | 24.18330 | 89.87002 | 36932 ft | 528 kts | 106° |
| 2026-05-05 05:24 | 24.16696 | 89.94843 | 36927 ft | 528 kts | 106° |
| 2026-05-05 05:25 | 24.15082 | 90.02565 | 36925 ft | 528 kts | 106° |
| 2026-05-05 05:25 | 24.13438 | 90.10404 | 36931 ft | 528 kts | 106° |
| 2026-05-05 05:26 | 24.11793 | 90.18235 | 36925 ft | 528 kts | 106° |
| 2026-05-05 05:26 | 24.10142 | 90.26069 | 36925 ft | 528 kts | 106° |
| 2026-05-05 05:27 | 24.08488 | 90.33900 | 36921 ft | 528 kts | 106° |
| 2026-05-05 05:27 | 24.05995 | 90.45641 | 36920 ft | 528 kts | 105° |
| 2026-05-05 05:28 | 24.04601 | 90.52132 | 36920 ft | 527 kts | 106° |
| 2026-05-05 05:28 | 24.02919 | 90.59939 | 36920 ft | 527 kts | 106° |
| 2026-05-05 05:29 | 24.01235 | 90.67740 | 36922 ft | 527 kts | 106° |
| 2026-05-05 05:29 | 23.99553 | 90.75523 | 36912 ft | 526 kts | 106° |
| 2026-05-05 05:30 | 23.97865 | 90.83314 | 36916 ft | 526 kts | 105° |
| 2026-05-05 05:30 | 23.96175 | 90.91090 | 36913 ft | 526 kts | 105° |
| 2026-05-05 05:31 | 23.94481 | 90.98869 | 36920 ft | 526 kts | 105° |
| 2026-05-05 05:31 | 23.92803 | 91.06552 | 36911 ft | 526 kts | 106° |
| 2026-05-05 05:32 | 23.91113 | 91.14272 | 36917 ft | 526 kts | 106° |
| 2026-05-05 05:32 | 23.89407 | 91.22045 | 36941 ft | 526 kts | 105° |
| 2026-05-05 05:33 | 23.87762 | 91.29833 | 36940 ft | 526 kts | 104° |
| 2026-05-05 05:33 | 23.86228 | 91.37652 | 36938 ft | 526 kts | 104° |
| 2026-05-05 05:34 | 23.84696 | 91.45469 | 36931 ft | 526 kts | 104° |
| 2026-05-05 05:34 | 23.83142 | 91.53279 | 36917 ft | 526 kts | 104° |
| 2026-05-05 05:35 | 23.81573 | 91.61083 | 36922 ft | 526 kts | 104° |
| 2026-05-05 05:35 | 23.80002 | 91.68879 | 36932 ft | 526 kts | 104° |
| 2026-05-05 05:36 | 23.78427 | 91.76675 | 36931 ft | 526 kts | 104° |
| 2026-05-05 05:36 | 23.76851 | 91.84463 | 36933 ft | 525 kts | 104° |
| 2026-05-05 05:37 | 23.75270 | 91.92251 | 36927 ft | 525 kts | 104° |
| 2026-05-05 05:37 | 23.73689 | 92.00024 | 36944 ft | 525 kts | 104° |
| 2026-05-05 05:38 | 23.72123 | 92.07696 | 36930 ft | 524 kts | 104° |
| 2026-05-05 05:38 | 23.70536 | 92.15453 | 36944 ft | 524 kts | 104° |
| 2026-05-05 05:39 | 23.68946 | 92.23201 | 36951 ft | 523 kts | 104° |
| 2026-05-05 05:39 | 23.67353 | 92.30949 | 36955 ft | 523 kts | 104° |
| 2026-05-05 05:40 | 23.65756 | 92.38690 | 36965 ft | 523 kts | 104° |
| 2026-05-05 05:40 | 23.64156 | 92.46433 | 36962 ft | 523 kts | 104° |
| 2026-05-05 05:41 | 23.62551 | 92.54173 | 36971 ft | 523 kts | 104° |
| 2026-05-05 05:41 | 23.60941 | 92.61919 | 36965 ft | 524 kts | 104° |
| 2026-05-05 05:42 | 23.59426 | 92.69690 | 36971 ft | 524 kts | 103° |
| 2026-05-05 05:42 | 23.58014 | 92.77481 | 36970 ft | 524 kts | 103° |
| 2026-05-05 05:43 | 23.56593 | 92.85269 | 36984 ft | 524 kts | 103° |
| 2026-05-05 05:43 | 23.55145 | 92.93056 | 36988 ft | 524 kts | 103° |
| 2026-05-05 05:44 | 23.53719 | 93.00668 | 36980 ft | 524 kts | 103° |
| 2026-05-05 05:44 | 23.52249 | 93.08497 | 36990 ft | 523 kts | 103° |
| 2026-05-05 05:45 | 23.50798 | 93.16207 | 36994 ft | 523 kts | 103° |
| 2026-05-05 05:45 | 23.49336 | 93.23956 | 37011 ft | 521 kts | 103° |
| 2026-05-05 05:46 | 23.47873 | 93.31695 | 37006 ft | 522 kts | 103° |
| 2026-05-05 05:46 | 23.46404 | 93.39446 | 37007 ft | 523 kts | 103° |
| 2026-05-05 05:47 | 23.44982 | 93.47216 | 36999 ft | 524 kts | 99° |
| 2026-05-05 05:47 | 23.44158 | 93.55107 | 36997 ft | 525 kts | 96° |
| 2026-05-05 05:48 | 23.43452 | 93.63018 | 36998 ft | 525 kts | 96° |
| 2026-05-05 05:48 | 23.42722 | 93.70930 | 37019 ft | 524 kts | 97° |
| 2026-05-05 05:49 | 23.41959 | 93.78840 | 37003 ft | 526 kts | 97° |
| 2026-05-05 05:49 | 23.41182 | 93.86752 | 36994 ft | 525 kts | 97° |
| 2026-05-05 05:50 | 23.40399 | 93.94668 | 36977 ft | 526 kts | 97° |
| 2026-05-05 05:50 | 23.39621 | 94.02513 | 36969 ft | 527 kts | 97° |
| 2026-05-05 05:51 | 23.38834 | 94.10443 | 36966 ft | 527 kts | 97° |
| 2026-05-05 05:51 | 23.38040 | 94.18386 | 36945 ft | 528 kts | 97° |
| 2026-05-05 05:52 | 23.37242 | 94.26323 | 36947 ft | 528 kts | 97° |
| 2026-05-05 05:52 | 23.36445 | 94.34202 | 36923 ft | 527 kts | 97° |
| 2026-05-05 05:53 | 23.35642 | 94.42114 | 36931 ft | 525 kts | 97° |
| 2026-05-05 05:53 | 23.34836 | 94.50009 | 36929 ft | 524 kts | 97° |
| 2026-05-05 05:54 | 23.34028 | 94.57890 | 36923 ft | 524 kts | 97° |
| 2026-05-05 05:54 | 23.33217 | 94.65754 | 36931 ft | 523 kts | 97° |
| 2026-05-05 05:55 | 23.32404 | 94.73607 | 36936 ft | 522 kts | 97° |
| 2026-05-05 05:55 | 23.31586 | 94.81460 | 36938 ft | 522 kts | 97° |
| 2026-05-05 05:56 | 23.30764 | 94.89313 | 36931 ft | 523 kts | 97° |
| 2026-05-05 05:56 | 23.29938 | 94.97165 | 36936 ft | 523 kts | 97° |
| 2026-05-05 05:57 | 23.29117 | 95.04938 | 36915 ft | 523 kts | 97° |
| 2026-05-05 05:57 | 23.28283 | 95.12804 | 36918 ft | 523 kts | 97° |
| 2026-05-05 05:58 | 23.27450 | 95.20615 | 36905 ft | 524 kts | 97° |
| 2026-05-05 05:58 | 23.26606 | 95.28485 | 36904 ft | 524 kts | 97° |
| 2026-05-05 05:59 | 23.25759 | 95.36353 | 36891 ft | 524 kts | 97° |
| 2026-05-05 05:59 | 23.24907 | 95.44225 | 36896 ft | 524 kts | 97° |
| 2026-05-05 06:00 | 23.24051 | 95.52100 | 36881 ft | 524 kts | 97° |
| 2026-05-05 06:00 | 23.23191 | 95.59974 | 36886 ft | 524 kts | 97° |
| 2026-05-05 06:01 | 23.22327 | 95.67845 | 36877 ft | 525 kts | 97° |
| 2026-05-05 06:01 | 23.21459 | 95.75719 | 36868 ft | 524 kts | 97° |
| 2026-05-05 06:02 | 23.20588 | 95.83585 | 36872 ft | 524 kts | 97° |
| 2026-05-05 06:02 | 23.19713 | 95.91447 | 36869 ft | 523 kts | 97° |
| 2026-05-05 06:03 | 23.18842 | 95.99245 | 36871 ft | 523 kts | 97° |
| 2026-05-05 06:03 | 23.17970 | 96.07007 | 36867 ft | 523 kts | 97° |
| 2026-05-05 06:04 | 23.17086 | 96.14847 | 36878 ft | 523 kts | 97° |
| 2026-05-05 06:04 | 23.16198 | 96.22683 | 36873 ft | 522 kts | 97° |
| 2026-05-05 06:05 | 23.15307 | 96.30516 | 36881 ft | 522 kts | 97° |
| 2026-05-05 06:05 | 23.14412 | 96.38341 | 36882 ft | 522 kts | 97° |
| 2026-05-05 06:06 | 23.13513 | 96.46170 | 36888 ft | 522 kts | 97° |
| 2026-05-05 06:06 | 23.12610 | 96.53998 | 36888 ft | 523 kts | 97° |
| 2026-05-05 06:07 | 23.11702 | 96.61834 | 36899 ft | 523 kts | 97° |
| 2026-05-05 06:07 | 23.10790 | 96.69678 | 36909 ft | 524 kts | 97° |
| 2026-05-05 06:08 | 23.09873 | 96.77524 | 36911 ft | 524 kts | 98° |
| 2026-05-05 06:08 | 23.08951 | 96.85375 | 36922 ft | 524 kts | 98° |
| 2026-05-05 06:09 | 23.08026 | 96.93225 | 36934 ft | 524 kts | 98° |
| 2026-05-05 06:09 | 23.07107 | 97.00990 | 36939 ft | 524 kts | 98° |
| 2026-05-05 06:10 | 23.06173 | 97.08840 | 36939 ft | 524 kts | 98° |
| 2026-05-05 06:10 | 23.05237 | 97.16685 | 36929 ft | 524 kts | 98° |
| 2026-05-05 06:11 | 23.04296 | 97.24532 | 36920 ft | 524 kts | 98° |
| 2026-05-05 06:11 | 23.03352 | 97.32366 | 36931 ft | 523 kts | 98° |
| 2026-05-05 06:12 | 23.02404 | 97.40206 | 36919 ft | 523 kts | 98° |
| 2026-05-05 06:12 | 23.01453 | 97.48038 | 36914 ft | 523 kts | 98° |
| 2026-05-05 06:13 | 23.00505 | 97.55813 | 36915 ft | 523 kts | 98° |
| 2026-05-05 06:13 | 22.99550 | 97.63622 | 36899 ft | 523 kts | 98° |
| 2026-05-05 06:14 | 22.98739 | 97.71456 | 36895 ft | 522 kts | 90° |
| 2026-05-05 06:14 | 22.99501 | 97.79252 | 36903 ft | 520 kts | 76° |
| 2026-05-05 06:15 | 23.01786 | 97.86658 | 36907 ft | 517 kts | 67° |
| 2026-05-05 06:15 | 23.04387 | 97.93940 | 36918 ft | 518 kts | 67° |
| 2026-05-05 06:16 | 23.06921 | 98.01163 | 36921 ft | 519 kts | 67° |
| 2026-05-05 06:16 | 23.09438 | 98.08510 | 36925 ft | 520 kts | 68° |
| 2026-05-05 06:17 | 23.11941 | 98.15881 | 36921 ft | 520 kts | 68° |
| 2026-05-05 06:17 | 23.14441 | 98.23250 | 36921 ft | 520 kts | 68° |
| 2026-05-05 06:18 | 23.16942 | 98.30622 | 36929 ft | 520 kts | 68° |
| 2026-05-05 06:18 | 23.19433 | 98.37975 | 36939 ft | 518 kts | 68° |
| 2026-05-05 06:19 | 23.21501 | 98.44085 | 36938 ft | 519 kts | 68° |
| 2026-05-05 06:19 | 23.24393 | 98.52651 | 36925 ft | 520 kts | 68° |
| 2026-05-05 06:20 | 23.26882 | 98.60037 | 36911 ft | 520 kts | 68° |
| 2026-05-05 06:20 | 23.28962 | 98.66222 | 36924 ft | 520 kts | 68° |
| 2026-05-05 06:21 | 23.31446 | 98.73615 | 36930 ft | 521 kts | 68° |
| 2026-05-05 06:21 | 23.33928 | 98.81019 | 36925 ft | 521 kts | 68° |
| 2026-05-05 06:22 | 23.36405 | 98.88420 | 36928 ft | 520 kts | 68° |
| 2026-05-05 06:22 | 23.38826 | 98.95783 | 36938 ft | 520 kts | 69° |
| 2026-05-05 06:23 | 23.41117 | 99.03154 | 36929 ft | 520 kts | 69° |
| 2026-05-05 06:23 | 23.43417 | 99.10604 | 36946 ft | 519 kts | 69° |
| 2026-05-05 06:24 | 23.45732 | 99.18044 | 36932 ft | 518 kts | 69° |
| 2026-05-05 06:24 | 23.48045 | 99.25471 | 36961 ft | 517 kts | 69° |
| 2026-05-05 06:25 | 23.50347 | 99.32884 | 36937 ft | 515 kts | 69° |
| 2026-05-05 06:25 | 23.52721 | 99.40228 | 36956 ft | 513 kts | 65° |
| 2026-05-05 06:26 | 23.55971 | 99.47125 | 36960 ft | 511 kts | 57° |
| 2026-05-05 06:26 | 23.59555 | 99.53836 | 36960 ft | 514 kts | 57° |
| 2026-05-05 06:27 | 23.64923 | 99.63991 | 36960 ft | 516 kts | 57° |
| 2026-05-05 06:28 | 23.68476 | 99.70813 | 36969 ft | 518 kts | 57° |
| 2026-05-05 06:28 | 23.72029 | 99.77658 | 36961 ft | 518 kts | 58° |
| 2026-05-05 06:29 | 23.75554 | 99.84453 | 36986 ft | 518 kts | 58° |
| 2026-05-05 06:29 | 23.79099 | 99.91291 | 36961 ft | 517 kts | 57° |
| 2026-05-05 06:30 | 23.82636 | 99.98121 | 36920 ft | 516 kts | 57° |
| 2026-05-05 06:30 | 23.86118 | 100.04855 | 36935 ft | 515 kts | 58° |
| 2026-05-05 06:31 | 23.89632 | 100.11659 | 36965 ft | 514 kts | 57° |
| 2026-05-05 06:31 | 23.93149 | 100.18480 | 36959 ft | 516 kts | 58° |
| 2026-05-05 06:32 | 23.96669 | 100.25315 | 36957 ft | 516 kts | 58° |
| 2026-05-05 06:32 | 24.00186 | 100.32156 | 36973 ft | 516 kts | 58° |
| 2026-05-05 06:33 | 24.03706 | 100.39012 | 36977 ft | 518 kts | 58° |
| 2026-05-05 06:33 | 24.07229 | 100.45883 | 36960 ft | 518 kts | 58° |
| 2026-05-05 06:34 | 24.10750 | 100.52761 | 36963 ft | 518 kts | 58° |
| 2026-05-05 06:34 | 24.14253 | 100.59645 | 36948 ft | 517 kts | 58° |
| 2026-05-05 06:35 | 24.17705 | 100.66536 | 36946 ft | 516 kts | 58° |
| 2026-05-05 06:35 | 24.21146 | 100.73428 | 36948 ft | 515 kts | 58° |
| 2026-05-05 06:36 | 24.24582 | 100.80309 | 36961 ft | 514 kts | 58° |
| 2026-05-05 06:36 | 24.27992 | 100.87138 | 36956 ft | 514 kts | 58° |
| 2026-05-05 06:37 | 24.31419 | 100.94010 | 36981 ft | 514 kts | 58° |
| 2026-05-05 06:37 | 24.34798 | 101.00793 | 36971 ft | 515 kts | 58° |
| 2026-05-05 06:38 | 24.38232 | 101.07698 | 36969 ft | 516 kts | 58° |
| 2026-05-05 06:38 | 24.41663 | 101.14610 | 36970 ft | 516 kts | 58° |
| 2026-05-05 06:39 | 24.45091 | 101.21526 | 36966 ft | 516 kts | 58° |
| 2026-05-05 06:39 | 24.48517 | 101.28448 | 36970 ft | 516 kts | 58° |
| 2026-05-05 06:40 | 24.51939 | 101.35369 | 36917 ft | 516 kts | 59° |
| 2026-05-05 06:40 | 24.55354 | 101.42290 | 36928 ft | 517 kts | 59° |
| 2026-05-05 06:41 | 24.58772 | 101.49227 | 36942 ft | 515 kts | 59° |
| 2026-05-05 06:41 | 24.62172 | 101.56135 | 36922 ft | 513 kts | 59° |
| 2026-05-05 06:42 | 24.65535 | 101.63037 | 36914 ft | 511 kts | 59° |
| 2026-05-05 06:42 | 24.68869 | 101.69941 | 36907 ft | 511 kts | 59° |
| 2026-05-05 06:43 | 24.72191 | 101.76828 | 36929 ft | 509 kts | 59° |
| 2026-05-05 06:43 | 24.75512 | 101.83710 | 36912 ft | 509 kts | 59° |
| 2026-05-05 06:44 | 24.78809 | 101.90551 | 36925 ft | 510 kts | 59° |
| 2026-05-05 06:44 | 24.82128 | 101.97448 | 36924 ft | 510 kts | 59° |
| 2026-05-05 06:45 | 24.85413 | 102.04284 | 36920 ft | 512 kts | 59° |
| 2026-05-05 06:45 | 24.88740 | 102.11218 | 36938 ft | 512 kts | 59° |
| 2026-05-05 06:46 | 24.92062 | 102.18154 | 36920 ft | 512 kts | 59° |
| 2026-05-05 06:46 | 24.95381 | 102.25093 | 36937 ft | 512 kts | 59° |
| 2026-05-05 06:47 | 24.98690 | 102.32025 | 36936 ft | 511 kts | 59° |
| 2026-05-05 06:47 | 25.01988 | 102.38941 | 36939 ft | 510 kts | 59° |
| 2026-05-05 06:48 | 25.05277 | 102.45865 | 36944 ft | 508 kts | 61° |
| 2026-05-05 06:48 | 25.06438 | 102.49550 | 36935 ft | 512 kts | 79° |
| 2026-05-05 06:48 | 25.06636 | 102.53468 | 36954 ft | 514 kts | 94° |
| 2026-05-05 06:48 | 25.05973 | 102.57340 | 36955 ft | 515 kts | 110° |
| 2026-05-05 06:49 | 25.04521 | 102.60869 | 37013 ft | 511 kts | 118° |
| 2026-05-05 06:49 | 25.01235 | 102.67855 | 37056 ft | 516 kts | 118° |
| 2026-05-05 06:50 | 24.98012 | 102.74954 | 37089 ft | 520 kts | 117° |
| 2026-05-05 06:50 | 24.94838 | 102.82132 | 37114 ft | 522 kts | 117° |
| 2026-05-05 06:51 | 24.91643 | 102.89337 | 37103 ft | 524 kts | 117° |
| 2026-05-05 06:51 | 24.88476 | 102.96563 | 37072 ft | 524 kts | 116° |
| 2026-05-05 06:52 | 24.85368 | 103.03685 | 37028 ft | 522 kts | 116° |
| 2026-05-05 06:52 | 24.82219 | 103.10882 | 36959 ft | 521 kts | 116° |
| 2026-05-05 06:53 | 24.79072 | 103.18049 | 36917 ft | 519 kts | 116° |
| 2026-05-05 06:53 | 24.75928 | 103.25196 | 36907 ft | 518 kts | 116° |
| 2026-05-05 06:54 | 24.72791 | 103.32317 | 36918 ft | 517 kts | 116° |
| 2026-05-05 06:54 | 24.69648 | 103.39439 | 36913 ft | 517 kts | 116° |
| 2026-05-05 06:55 | 24.66503 | 103.46558 | 36915 ft | 518 kts | 117° |
| 2026-05-05 06:55 | 24.63350 | 103.53683 | 36912 ft | 519 kts | 116° |
| 2026-05-05 06:56 | 24.60186 | 103.60822 | 36914 ft | 520 kts | 116° |
| 2026-05-05 06:56 | 24.57010 | 103.67978 | 36916 ft | 522 kts | 116° |
| 2026-05-05 06:57 | 24.54105 | 103.75226 | 36917 ft | 523 kts | 109° |
| 2026-05-05 06:57 | 24.52243 | 103.82944 | 36913 ft | 523 kts | 102° |
| 2026-05-05 06:58 | 24.50656 | 103.90747 | 36905 ft | 524 kts | 102° |
| 2026-05-05 06:58 | 24.49039 | 103.98551 | 36886 ft | 524 kts | 102° |
| 2026-05-05 06:59 | 24.47399 | 104.06263 | 36890 ft | 524 kts | 102° |
| 2026-05-05 06:59 | 24.45724 | 104.14052 | 36856 ft | 524 kts | 103° |
| 2026-05-05 07:00 | 24.44050 | 104.21831 | 36859 ft | 524 kts | 103° |
| 2026-05-05 07:00 | 24.42374 | 104.29608 | 36851 ft | 523 kts | 102° |
| 2026-05-05 07:01 | 24.40697 | 104.37372 | 36856 ft | 522 kts | 102° |
| 2026-05-05 07:01 | 24.39018 | 104.45124 | 36842 ft | 523 kts | 102° |
| 2026-05-05 07:02 | 24.37334 | 104.52877 | 36839 ft | 522 kts | 102° |
| 2026-05-05 07:02 | 24.35650 | 104.60618 | 36847 ft | 522 kts | 102° |
| 2026-05-05 07:03 | 24.33960 | 104.68357 | 36843 ft | 522 kts | 102° |
| 2026-05-05 07:03 | 24.32266 | 104.76097 | 36843 ft | 522 kts | 102° |
| 2026-05-05 07:04 | 24.30567 | 104.83841 | 36833 ft | 522 kts | 102° |
| 2026-05-05 07:04 | 24.28864 | 104.91589 | 36836 ft | 523 kts | 102° |
| 2026-05-05 07:05 | 24.27154 | 104.99338 | 36835 ft | 523 kts | 102° |
| 2026-05-05 07:05 | 24.25477 | 105.06929 | 36837 ft | 523 kts | 102° |
| 2026-05-05 07:06 | 24.23762 | 105.14665 | 36846 ft | 522 kts | 102° |
| 2026-05-05 07:06 | 24.22043 | 105.22400 | 36848 ft | 522 kts | 103° |
| 2026-05-05 07:07 | 24.20212 | 105.30103 | 36857 ft | 523 kts | 104° |
| 2026-05-05 07:07 | 24.18319 | 105.37798 | 36849 ft | 523 kts | 104° |
| 2026-05-05 07:08 | 24.16438 | 105.45499 | 36854 ft | 524 kts | 104° |
| 2026-05-05 07:08 | 24.14567 | 105.53204 | 36848 ft | 523 kts | 104° |
| 2026-05-05 07:09 | 24.12693 | 105.60906 | 36848 ft | 524 kts | 103° |
| 2026-05-05 07:09 | 24.10813 | 105.68610 | 36863 ft | 524 kts | 104° |
| 2026-05-05 07:10 | 24.09063 | 105.76364 | 36856 ft | 525 kts | 101° |
| 2026-05-05 07:10 | 24.07567 | 105.84197 | 36863 ft | 527 kts | 100° |
| 2026-05-05 07:11 | 24.06076 | 105.91999 | 36850 ft | 528 kts | 101° |
| 2026-05-05 07:11 | 24.04522 | 105.99842 | 36864 ft | 527 kts | 101° |
| 2026-05-05 07:12 | 24.02968 | 106.07565 | 36859 ft | 528 kts | 101° |
| 2026-05-05 07:12 | 24.01389 | 106.15402 | 36851 ft | 528 kts | 101° |
| 2026-05-05 07:13 | 23.99811 | 106.23225 | 36861 ft | 527 kts | 101° |
| 2026-05-05 07:13 | 23.98229 | 106.31052 | 36862 ft | 527 kts | 101° |
| 2026-05-05 07:14 | 23.96912 | 106.37551 | 36865 ft | 526 kts | 101° |
| 2026-05-05 07:14 | 23.95325 | 106.45361 | 36864 ft | 526 kts | 101° |
| 2026-05-05 07:15 | 23.93736 | 106.53171 | 36870 ft | 527 kts | 101° |
| 2026-05-05 07:15 | 23.92247 | 106.61007 | 36876 ft | 526 kts | 96° |
| 2026-05-05 07:16 | 23.91619 | 106.68941 | 36882 ft | 524 kts | 91° |
| 2026-05-05 07:16 | 23.91167 | 106.76908 | 36885 ft | 526 kts | 91° |
| 2026-05-05 07:17 | 23.90680 | 106.84901 | 36881 ft | 528 kts | 91° |
| 2026-05-05 07:17 | 23.90151 | 106.92906 | 36887 ft | 529 kts | 91° |
| 2026-05-05 07:18 | 23.89615 | 107.00798 | 36885 ft | 529 kts | 91° |
| 2026-05-05 07:18 | 23.89069 | 107.08818 | 36897 ft | 530 kts | 91° |
| 2026-05-05 07:19 | 23.88520 | 107.16845 | 36890 ft | 529 kts | 91° |
| 2026-05-05 07:19 | 23.87970 | 107.24863 | 36911 ft | 530 kts | 91° |
| 2026-05-05 07:20 | 23.87412 | 107.32895 | 36911 ft | 531 kts | 91° |
| 2026-05-05 07:20 | 23.86850 | 107.40941 | 36913 ft | 531 kts | 91° |
| 2026-05-05 07:21 | 23.86288 | 107.48942 | 36919 ft | 532 kts | 91° |
| 2026-05-05 07:21 | 23.85716 | 107.57010 | 36915 ft | 533 kts | 91° |
| 2026-05-05 07:22 | 23.85140 | 107.65084 | 36919 ft | 533 kts | 92° |
| 2026-05-05 07:22 | 23.84558 | 107.73160 | 36928 ft | 533 kts | 92° |
| 2026-05-05 07:23 | 23.83974 | 107.81246 | 36926 ft | 534 kts | 92° |
| 2026-05-05 07:23 | 23.83429 | 107.89334 | 36921 ft | 534 kts | 90° |
| 2026-05-05 07:24 | 23.83044 | 107.97427 | 36921 ft | 534 kts | 90° |
| 2026-05-05 07:24 | 23.82662 | 108.05400 | 36931 ft | 533 kts | 90° |
| 2026-05-05 07:25 | 23.82243 | 108.13493 | 36922 ft | 534 kts | 90° |
| 2026-05-05 07:25 | 23.81808 | 108.21580 | 36936 ft | 533 kts | 91° |
| 2026-05-05 07:26 | 23.81350 | 108.29657 | 36936 ft | 533 kts | 91° |
| 2026-05-05 07:26 | 23.80885 | 108.37732 | 36930 ft | 533 kts | 91° |
| 2026-05-05 07:27 | 23.80420 | 108.45813 | 36936 ft | 534 kts | 91° |
| 2026-05-05 07:27 | 23.79954 | 108.53904 | 36924 ft | 534 kts | 91° |
| 2026-05-05 07:28 | 23.79481 | 108.62002 | 36948 ft | 535 kts | 91° |
| 2026-05-05 07:28 | 23.79003 | 108.70112 | 36930 ft | 535 kts | 91° |
| 2026-05-05 07:29 | 23.78520 | 108.78223 | 36959 ft | 535 kts | 91° |
| 2026-05-05 07:29 | 23.78034 | 108.86346 | 36943 ft | 537 kts | 91° |
| 2026-05-05 07:30 | 23.77542 | 108.94475 | 36944 ft | 537 kts | 91° |
| 2026-05-05 07:30 | 23.76807 | 109.06495 | 36952 ft | 537 kts | 91° |
| 2026-05-05 07:31 | 23.76241 | 109.14624 | 36946 ft | 538 kts | 95° |
| 2026-05-05 07:31 | 23.74819 | 109.22658 | 36950 ft | 540 kts | 101° |
| 2026-05-05 07:32 | 23.73124 | 109.30644 | 36943 ft | 540 kts | 101° |
| 2026-05-05 07:32 | 23.71467 | 109.38648 | 36941 ft | 541 kts | 101° |
| 2026-05-05 07:33 | 23.69848 | 109.46669 | 36942 ft | 541 kts | 101° |
| 2026-05-05 07:33 | 23.68226 | 109.54691 | 36937 ft | 542 kts | 101° |
| 2026-05-05 07:34 | 23.66592 | 109.62718 | 36938 ft | 542 kts | 101° |
| 2026-05-05 07:34 | 23.64942 | 109.70752 | 36936 ft | 543 kts | 101° |
| 2026-05-05 07:35 | 23.63284 | 109.78779 | 36936 ft | 543 kts | 101° |
| 2026-05-05 07:35 | 23.61625 | 109.86807 | 36941 ft | 543 kts | 102° |
| 2026-05-05 07:36 | 23.59960 | 109.94848 | 36941 ft | 545 kts | 102° |
| 2026-05-05 07:36 | 23.58304 | 110.02815 | 36943 ft | 544 kts | 102° |
| 2026-05-05 07:37 | 23.56628 | 110.10854 | 36933 ft | 544 kts | 102° |
| 2026-05-05 07:37 | 23.54951 | 110.18887 | 36936 ft | 543 kts | 102° |
| 2026-05-05 07:38 | 23.53270 | 110.26915 | 36930 ft | 543 kts | 102° |
| 2026-05-05 07:38 | 23.51587 | 110.34934 | 36925 ft | 543 kts | 102° |
| 2026-05-05 07:39 | 23.49940 | 110.42905 | 36924 ft | 543 kts | 101° |
| 2026-05-05 07:39 | 23.48308 | 110.50987 | 36926 ft | 543 kts | 101° |
| 2026-05-05 07:40 | 23.46688 | 110.58968 | 36920 ft | 544 kts | 102° |
| 2026-05-05 07:40 | 23.45044 | 110.67008 | 36927 ft | 544 kts | 102° |
| 2026-05-05 07:41 | 23.43388 | 110.75052 | 36921 ft | 545 kts | 102° |
| 2026-05-05 07:41 | 23.41690 | 110.83063 | 36899 ft | 538 kts | 102° |
| 2026-05-05 07:42 | 23.39980 | 110.91076 | 36936 ft | 548 kts | 102° |
| 2026-05-05 07:42 | 23.38253 | 110.99190 | 36927 ft | 552 kts | 102° |
| 2026-05-05 07:43 | 23.36539 | 111.07230 | 36919 ft | 552 kts | 102° |
| 2026-05-05 07:43 | 23.34805 | 111.15346 | 36931 ft | 549 kts | 102° |
| 2026-05-05 07:44 | 23.33145 | 111.23437 | 36926 ft | 547 kts | 102° |
| 2026-05-05 07:44 | 23.31531 | 111.31502 | 36928 ft | 544 kts | 102° |
| 2026-05-05 07:45 | 23.29720 | 111.39495 | 36933 ft | 547 kts | 109° |
| 2026-05-05 07:45 | 23.26664 | 111.47145 | 36946 ft | 557 kts | 120° |
| 2026-05-05 07:46 | 23.22817 | 111.54524 | 36948 ft | 563 kts | 121° |
| 2026-05-05 07:46 | 23.18912 | 111.61913 | 36940 ft | 564 kts | 121° |
| 2026-05-05 07:47 | 23.15056 | 111.69335 | 36944 ft | 563 kts | 121° |
| 2026-05-05 07:47 | 23.11241 | 111.76755 | 36931 ft | 561 kts | 121° |
| 2026-05-05 07:48 | 23.07440 | 111.84145 | 36941 ft | 559 kts | 121° |
| 2026-05-05 07:48 | 23.03645 | 111.91499 | 36954 ft | 558 kts | 121° |
| 2026-05-05 07:49 | 22.99854 | 111.98829 | 36950 ft | 556 kts | 121° |
| 2026-05-05 07:49 | 22.96110 | 112.06054 | 36945 ft | 555 kts | 121° |
| 2026-05-05 07:50 | 22.92327 | 112.13345 | 36952 ft | 555 kts | 121° |
| 2026-05-05 07:50 | 22.88539 | 112.20637 | 36951 ft | 555 kts | 121° |
| 2026-05-05 07:51 | 22.84746 | 112.27929 | 36952 ft | 555 kts | 121° |
| 2026-05-05 07:51 | 22.80946 | 112.35224 | 36954 ft | 556 kts | 121° |
| 2026-05-05 07:52 | 22.77161 | 112.42477 | 36963 ft | 557 kts | 121° |
| 2026-05-05 07:52 | 22.73341 | 112.49789 | 36959 ft | 558 kts | 121° |
| 2026-05-05 07:53 | 22.69518 | 112.57096 | 36945 ft | 557 kts | 121° |
| 2026-05-05 07:53 | 22.65698 | 112.64389 | 36951 ft | 556 kts | 121° |
| 2026-05-05 07:54 | 22.61877 | 112.71670 | 36961 ft | 556 kts | 121° |
| 2026-05-05 07:54 | 22.58057 | 112.78940 | 36956 ft | 555 kts | 121° |
| 2026-05-05 07:55 | 22.54257 | 112.86166 | 36489 ft | 548 kts | 122° |
| 2026-05-05 07:55 | 22.52377 | 112.89736 | 35862 ft | 545 kts | 122° |
| 2026-05-05 07:55 | 22.50500 | 112.93297 | 35218 ft | 544 kts | 122° |
| 2026-05-05 07:56 | 22.48630 | 112.96841 | 34617 ft | 542 kts | 122° |
| 2026-05-05 07:56 | 22.46809 | 113.00292 | 34121 ft | 539 kts | 122° |
| 2026-05-05 07:56 | 22.44958 | 113.03798 | 33584 ft | 534 kts | 122° |
| 2026-05-05 07:56 | 22.43123 | 113.07270 | 33074 ft | 530 kts | 122° |
| 2026-05-05 07:57 | 22.41305 | 113.10709 | 32580 ft | 525 kts | 122° |
| 2026-05-05 07:57 | 22.39502 | 113.14117 | 32118 ft | 520 kts | 122° |
| 2026-05-05 07:57 | 22.37712 | 113.17496 | 31466 ft | 519 kts | 122° |
| 2026-05-05 07:57 | 22.35914 | 113.20886 | 30714 ft | 521 kts | 122° |
| 2026-05-05 07:58 | 22.34107 | 113.24293 | 29995 ft | 523 kts | 122° |
| 2026-05-05 07:58 | 22.32298 | 113.27701 | 29200 ft | 523 kts | 122° |
| 2026-05-05 07:58 | 22.30493 | 113.31102 | 28503 ft | 521 kts | 122° |
| 2026-05-05 07:58 | 22.28700 | 113.34481 | 28018 ft | 515 kts | 122° |
| 2026-05-05 07:59 | 22.26935 | 113.37805 | 27661 ft | 506 kts | 122° |
| 2026-05-05 07:59 | 22.25193 | 113.41078 | 27219 ft | 498 kts | 123° |
| 2026-05-05 07:59 | 22.23214 | 113.44100 | 26565 ft | 490 kts | 136° |
| 2026-05-05 07:59 | 22.20689 | 113.46517 | 25952 ft | 479 kts | 149° |
| 2026-05-05 08:00 | 22.17908 | 113.48323 | 25261 ft | 458 kts | 159° |
| 2026-05-05 08:00 | 22.14965 | 113.49489 | 24291 ft | 447 kts | 168° |
| 2026-05-05 08:00 | 22.12005 | 113.50474 | 23265 ft | 444 kts | 167° |
| 2026-05-05 08:00 | 22.09074 | 113.51477 | 22234 ft | 439 kts | 167° |
| 2026-05-05 08:01 | 22.07163 | 113.52155 | 21631 ft | 434 kts | 166° |
| 2026-05-05 08:01 | 22.04315 | 113.53185 | 20900 ft | 432 kts | 166° |
| 2026-05-05 08:01 | 22.01462 | 113.54222 | 20298 ft | 434 kts | 166° |
| 2026-05-05 08:01 | 21.98595 | 113.55264 | 19669 ft | 438 kts | 166° |
| 2026-05-05 08:02 | 21.95742 | 113.56440 | 19134 ft | 438 kts | 162° |
| 2026-05-05 08:02 | 21.92963 | 113.57735 | 18689 ft | 432 kts | 161° |
| 2026-05-05 08:02 | 21.90249 | 113.59045 | 18377 ft | 422 kts | 161° |
| 2026-05-05 08:02 | 21.87593 | 113.60315 | 18062 ft | 412 kts | 161° |
| 2026-05-05 08:03 | 21.84993 | 113.61534 | 17712 ft | 403 kts | 161° |
| 2026-05-05 08:03 | 21.82433 | 113.62717 | 17271 ft | 398 kts | 162° |
| 2026-05-05 08:03 | 21.79894 | 113.63883 | 16740 ft | 396 kts | 161° |
| 2026-05-05 08:03 | 21.77367 | 113.65043 | 16211 ft | 394 kts | 161° |
| 2026-05-05 08:04 | 21.74952 | 113.66383 | 15588 ft | 395 kts | 147° |
| 2026-05-05 08:04 | 21.73058 | 113.68560 | 14981 ft | 405 kts | 124° |
| 2026-05-05 08:04 | 21.71975 | 113.71346 | 14561 ft | 406 kts | 104° |
| 2026-05-05 08:04 | 21.71804 | 113.74354 | 14172 ft | 403 kts | 83° |
| 2026-05-05 08:05 | 21.72565 | 113.77222 | 13759 ft | 398 kts | 63° |
| 2026-05-05 08:05 | 21.74062 | 113.79603 | 13623 ft | 383 kts | 44° |
| 2026-05-05 08:05 | 21.75982 | 113.81530 | 13522 ft | 365 kts | 39° |
| 2026-05-05 08:05 | 21.77813 | 113.83239 | 13360 ft | 343 kts | 38° |
| 2026-05-05 08:06 | 21.79569 | 113.84900 | 13034 ft | 331 kts | 39° |
| 2026-05-05 08:06 | 21.81270 | 113.86539 | 12540 ft | 325 kts | 40° |
| 2026-05-05 08:06 | 21.82958 | 113.88131 | 11907 ft | 319 kts | 33° |
| 2026-05-05 08:06 | 21.84937 | 113.89101 | 11181 ft | 310 kts | 6° |
| 2026-05-05 08:07 | 21.87046 | 113.89130 | 10518 ft | 300 kts | 346° |
| 2026-05-05 08:07 | 21.89017 | 113.88465 | 9963 ft | 299 kts | 332° |
| 2026-05-05 08:07 | 21.90893 | 113.87539 | 9635 ft | 295 kts | 331° |
| 2026-05-05 08:07 | 21.92734 | 113.86599 | 9367 ft | 290 kts | 331° |
| 2026-05-05 08:08 | 21.94551 | 113.85670 | 9062 ft | 288 kts | 332° |
| 2026-05-05 08:08 | 21.96363 | 113.84749 | 8721 ft | 288 kts | 332° |
| 2026-05-05 08:08 | 21.98173 | 113.83835 | 8370 ft | 287 kts | 332° |
| 2026-05-05 08:08 | 21.99984 | 113.82926 | 8025 ft | 286 kts | 332° |
| 2026-05-05 08:09 | 22.01787 | 113.82024 | 7703 ft | 285 kts | 332° |
| 2026-05-05 08:09 | 22.03583 | 113.81127 | 7427 ft | 284 kts | 332° |
| 2026-05-05 08:09 | 22.05376 | 113.80233 | 7200 ft | 283 kts | 332° |
| 2026-05-05 08:09 | 22.07157 | 113.79347 | 6938 ft | 282 kts | 332° |
| 2026-05-05 08:10 | 22.08940 | 113.78458 | 6775 ft | 282 kts | 332° |
| 2026-05-05 08:10 | 22.10699 | 113.77583 | 6718 ft | 274 kts | 332° |
| 2026-05-05 08:10 | 22.12399 | 113.76738 | 6640 ft | 265 kts | 331° |
| 2026-05-05 08:10 | 22.14053 | 113.75914 | 6561 ft | 257 kts | 332° |
| 2026-05-05 08:11 | 22.15617 | 113.75132 | 6487 ft | 238 kts | 332° |
| 2026-05-05 08:11 | 22.17063 | 113.74410 | 6329 ft | 221 kts | 332° |
| 2026-05-05 08:11 | 22.18415 | 113.73735 | 6068 ft | 210 kts | 332° |
| 2026-05-05 08:11 | 22.19716 | 113.73086 | 5730 ft | 203 kts | 332° |
| 2026-05-05 08:12 | 22.20984 | 113.72452 | 5264 ft | 200 kts | 332° |
| 2026-05-05 08:12 | 22.22246 | 113.71825 | 4739 ft | 200 kts | 335° |
| 2026-05-05 08:12 | 22.23613 | 113.71657 | 4104 ft | 204 kts | 17° |
| 2026-05-05 08:12 | 22.24790 | 113.72475 | 3549 ft | 201 kts | 44° |
| 2026-05-05 08:13 | 22.25812 | 113.73456 | 3107 ft | 192 kts | 43° |
| 2026-05-05 08:13 | 22.26794 | 113.74373 | 2686 ft | 179 kts | 43° |
| 2026-05-05 08:13 | 22.27674 | 113.75253 | 2449 ft | 165 kts | 58° |
| 2026-05-05 08:13 | 22.28154 | 113.76338 | 2306 ft | 158 kts | 67° |
| 2026-05-05 08:14 | 22.28604 | 113.77371 | 2100 ft | 146 kts | 69° |
| 2026-05-05 08:14 | 22.28972 | 113.78364 | 1894 ft | 139 kts | 72° |
| 2026-05-05 08:14 | 22.29294 | 113.79329 | 1718 ft | 138 kts | 72° |
| 2026-05-05 08:14 | 22.29613 | 113.80312 | 1537 ft | 139 kts | 73° |
| 2026-05-05 08:15 | 22.29926 | 113.81278 | 1359 ft | 131 kts | 72° |
| 2026-05-05 08:15 | 22.30241 | 113.82214 | 1125 ft | 133 kts | 72° |
| 2026-05-05 08:15 | 22.30555 | 113.83199 | 973 ft | 144 kts | 72° |
| 2026-05-05 08:15 | 22.30869 | 113.84212 | 857 ft | 140 kts | 70° |
| 2026-05-05 08:16 | 22.31193 | 113.85200 | 689 ft | 141 kts | 70° |
| 2026-05-05 08:16 | 22.31503 | 113.86182 | 459 ft | 135 kts | 69° |
| 2026-05-05 08:16 | 22.31813 | 113.87144 | 299 ft | 139 kts | 69° |
| 2026-05-05 08:16 | 22.32127 | 113.88136 | 104 ft | 140 kts | 69° |
| 2026-05-05 08:17 | 22.32439 | 113.89093 | 38 ft | 126 kts | 71° |
| 2026-05-05 08:17 | 22.32687 | 113.89868 | 37 ft | 91 kts | 70° |
| 2026-05-05 08:17 | 22.32855 | 113.90391 | 37 ft | 56 kts | 70° |
| 2026-05-05 08:17 | 22.32934 | 113.90660 | 38 ft | 25 kts | 81° |
| 2026-05-05 08:18 | 22.32930 | 113.90845 | 38 ft | 25 kts | 99° |
| 2026-05-05 08:18 | 22.32892 | 113.91027 | 37 ft | 24 kts | 102° |
| 2026-05-05 08:18 | 22.32916 | 113.91148 | 37 ft | 16 kts | 69° |
| 2026-05-05 08:18 | 22.32953 | 113.91264 | 37 ft | 16 kts | 71° |
| 2026-05-05 08:19 | 22.32991 | 113.91380 | 37 ft | 16 kts | 70° |
| 2026-05-05 08:19 | 22.33028 | 113.91496 | 37 ft | 16 kts | 71° |
| 2026-05-05 08:19 | 22.33064 | 113.91612 | 37 ft | 16 kts | 71° |
| 2026-05-05 08:19 | 22.33102 | 113.91728 | 37 ft | 16 kts | 70° |
| 2026-05-05 08:20 | 22.33140 | 113.91844 | 37 ft | 16 kts | 70° |
| 2026-05-05 08:20 | 22.33177 | 113.91960 | 37 ft | 16 kts | 71° |
| 2026-05-05 08:20 | 22.33208 | 113.92059 | 37 ft | 12 kts | 74° |
| 2026-05-05 08:20 | 22.33174 | 113.92130 | 36 ft | 12 kts | 154° |
| 2026-05-05 08:21 | 22.33095 | 113.92158 | 37 ft | 12 kts | 162° |
| 2026-05-05 08:21 | 22.33011 | 113.92190 | 37 ft | 13 kts | 160° |
| 2026-05-05 08:21 | 22.32927 | 113.92222 | 36 ft | 13 kts | 160° |
| 2026-05-05 08:21 | 22.32844 | 113.92253 | 37 ft | 13 kts | 161° |
| 2026-05-05 08:22 | 22.32756 | 113.92285 | 37 ft | 17 kts | 161° |
| 2026-05-05 08:22 | 22.32590 | 113.92347 | 37 ft | 28 kts | 161° |
| 2026-05-05 08:22 | 22.32415 | 113.92412 | 37 ft | 23 kts | 161° |
| 2026-05-05 08:22 | 22.32277 | 113.92463 | 37 ft | 10 kts | 161° |
| 2026-05-05 08:23 | 22.32243 | 113.92519 | 37 ft | 11 kts | 73° |
| 2026-05-05 08:23 | 22.32266 | 113.92596 | 37 ft | 11 kts | 71° |
| 2026-05-05 08:23 | 22.32250 | 113.92666 | 37 ft | 11 kts | 149° |
| 2026-05-05 08:23 | 22.32175 | 113.92694 | 37 ft | 12 kts | 162° |
| 2026-05-05 08:24 | 22.32096 | 113.92722 | 39 ft | 12 kts | 161° |
| 2026-05-05 08:24 | 22.32017 | 113.92751 | 39 ft | 12 kts | 160° |
| 2026-05-05 08:24 | 22.31938 | 113.92781 | 38 ft | 13 kts | 159° |
| 2026-05-05 08:24 | 22.31860 | 113.92745 | 37 ft | 14 kts | 244° |
| 2026-05-05 08:25 | 22.31825 | 113.92644 | 37 ft | 15 kts | 250° |
| 2026-05-05 08:25 | 22.31793 | 113.92540 | 37 ft | 15 kts | 252° |
| 2026-05-05 08:25 | 22.31758 | 113.92436 | 37 ft | 15 kts | 251° |
| 2026-05-05 08:25 | 22.31724 | 113.92330 | 37 ft | 15 kts | 251° |
| 2026-05-05 08:26 | 22.31691 | 113.92225 | 37 ft | 15 kts | 251° |
| 2026-05-05 08:26 | 22.31657 | 113.92120 | 37 ft | 15 kts | 251° |
| 2026-05-05 08:26 | 22.31615 | 113.92036 | 37 ft | 9 kts | 208° |
| 2026-05-05 08:26 | 22.31551 | 113.92048 | 37 ft | 10 kts | 161° |
| 2026-05-05 08:27 | 22.31482 | 113.92073 | 37 ft | 11 kts | 162° |
| 2026-05-05 08:27 | 22.31411 | 113.92101 | 37 ft | 8 kts | 155° |
| 2026-05-05 08:27 | 22.31339 | 113.92128 | 37 ft | 19 kts | 161° |
| 2026-05-05 08:27 | 22.31194 | 113.92181 | 37 ft | 22 kts | 162° |
| 2026-05-05 08:28 | 22.31046 | 113.92235 | 37 ft | 22 kts | 161° |
| 2026-05-05 08:28 | 22.30929 | 113.92280 | 37 ft | 14 kts | 160° |
| 2026-05-05 08:28 | 22.30908 | 113.92361 | 37 ft | 14 kts | 45° |
| 2026-05-05 08:28 | 22.30994 | 113.92410 | 37 ft | 14 kts | 26° |
| 2026-05-05 08:29 | 22.31081 | 113.92457 | 37 ft | 14 kts | 25° |
| 2026-05-05 08:29 | 22.31169 | 113.92502 | 37 ft | 14 kts | 25° |
| 2026-05-05 08:29 | 22.31237 | 113.92508 | 37 ft | 9 kts | 352° |
| 2026-05-05 08:30 | 22.31317 | 113.92536 | 37 ft | 2 kts | 25° |
| 2026-05-05 08:30 | 22.31320 | 113.92537 | 37 ft | 0 kts | 25° |